<?xml version="1.0" encoding="UTF-8" standalone="no" ?>
<gpx xmlns="http://www.topografix.com/GPX/1/1" xmlns:xsi="http://www.w3.org/2001/XMLSchema-instance" xsi:schemaLocation="http://www.topografix.com/GPX/1/1 http://www.topografix.com/GPX/1/1/gpx.xsd" version="1.1" creator="VisuGPX - https://www.visugpx.com">
  <metadata>
    <name>Col de Collebasse - cap taillat - Cap Lardier, en Boucle</name>
    <desc><![CDATA[Col de Collebasse - cap taillat - Cap Lardier, en Boucle.

Ne pas rentrer dans le dommaine de la Touraque (ca bloque bers la mer). 
Le chemin prevu indiquait que l'acces aux plage de ramatuelle etait ferme (Covid), mais le chemin d'acces etait libre et les plages ouvertes entre Taillat et LArdier


<p>Heure de départ: 10:48 31 mai 2020<br/>Heure d'arrivée: 17:24 31 mai 2020<br/>Distance: 14,7 km (06:35)<br/>Temps déplacement: 04:08<br/>Vitesse moyenne: 2,23 km/h<br/>Vitesse moyenne mouv.: 3,56 km/h<br/>Vitesse Max.: 10,88 km/h<br/>Altitude minimale: -8 m<br/>Altitude maximale: 184 m<br/>Vitesse de montée: 92,4 m/h<br/>Vitesse de descente: -86,7 m/h<br/>Gain d'altitude: 296 m<br/>Perte d'altitude: -283 m<br/>Temps de montée: 03:12<br/>Temps de descente: 03:16<br/></p><hr align="center" width="480" style="height: 2px; width: 517px"/>]]></desc>
  </metadata>
  <wpt lat="43.19514" lon="6.60937">
    <ele>148.87</ele>
    <name><![CDATA[0000223]]></name>
    <type><![CDATA[Point de départ]]></type>
  </wpt>
  <wpt lat="43.19523" lon="6.60924">
    <ele>158.88</ele>
    <name><![CDATA[0000224]]></name>
    <desc><![CDATA[<p><br /><h3>Nom: Segment: 1</h3><br />Heure de départ: 10:48 31 mai 2020<br/>Heure d'arrivée: 17:24 31 mai 2020<br/>Distance: 14,7km (06:35)<br/>Temps déplacement: 04:08<br/>Vitesse moyenne: 2,23 km/h<br/>Vitesse moyenne mouv.: 3,56 km/h<br/>Vitesse Max.: 10,88 km/h<br/>Altitude minimale: -8 m<br/>Altitude maximale: 184 m<br/>Vitesse de montée: 91,7 m/h<br/>Vitesse de descente: -88,2 m/h<br/>Gain d'altitude: 298 m<br/>Perte d'altitude: -288 m<br/>Temps de montée: 03:15<br/>Temps de descente: 03:16<br/></p>]]></desc>
    <type><![CDATA[Point d'arrivée]]></type>
  </wpt>
  <trk>
    <name><![CDATA[2020-05-31 10:46 - cap taillat]]></name>
    <desc><![CDATA[<p>Heure de départ: 10:48 31 mai 2020<br/>Heure d'arrivée: 17:24 31 mai 2020<br/>Distance: 14,7 km (06:35)<br/>Temps déplacement: 04:08<br/>Vitesse moyenne: 2,23 km/h<br/>Vitesse moyenne mouv.: 3,56 km/h<br/>Vitesse Max.: 10,88 km/h<br/>Altitude minimale: -8 m<br/>Altitude maximale: 184 m<br/>Vitesse de montée: 92,4 m/h<br/>Vitesse de descente: -86,7 m/h<br/>Gain d'altitude: 296 m<br/>Perte d'altitude: -283 m<br/>Temps de montée: 03:12<br/>Temps de descente: 03:16<br/></p><hr align="center" width="480" style="height: 2px; width: 517px"/>]]></desc>
    <trkseg>
      <trkpt lat="43.19514" lon="6.60937">
        <ele>148.87</ele>
        <time>2020-05-31T08:48:50Z</time>
      </trkpt>
      <trkpt lat="43.19495" lon="6.60937">
        <ele>141.51</ele>
        <time>2020-05-31T08:49:17Z</time>
      </trkpt>
      <trkpt lat="43.19478" lon="6.60942">
        <ele>141.33</ele>
        <time>2020-05-31T08:49:42Z</time>
      </trkpt>
      <trkpt lat="43.19462" lon="6.60954">
        <ele>141.11</ele>
        <time>2020-05-31T08:50:10Z</time>
      </trkpt>
      <trkpt lat="43.19444" lon="6.60961">
        <ele>141.9</ele>
        <time>2020-05-31T08:50:39Z</time>
      </trkpt>
      <trkpt lat="43.19426" lon="6.60956">
        <ele>142.2</ele>
        <time>2020-05-31T08:51:08Z</time>
      </trkpt>
      <trkpt lat="43.1941" lon="6.60968">
        <ele>141.84</ele>
        <time>2020-05-31T08:51:32Z</time>
      </trkpt>
      <trkpt lat="43.19392" lon="6.60975">
        <ele>141.18</ele>
        <time>2020-05-31T08:51:57Z</time>
      </trkpt>
      <trkpt lat="43.19377" lon="6.6099">
        <ele>140.87</ele>
        <time>2020-05-31T08:52:16Z</time>
      </trkpt>
      <trkpt lat="43.19367" lon="6.61011">
        <ele>140.69</ele>
        <time>2020-05-31T08:52:46Z</time>
      </trkpt>
      <trkpt lat="43.19363" lon="6.61036">
        <ele>140.67</ele>
        <time>2020-05-31T08:53:00Z</time>
      </trkpt>
      <trkpt lat="43.19361" lon="6.61063">
        <ele>140.98</ele>
        <time>2020-05-31T08:53:21Z</time>
      </trkpt>
      <trkpt lat="43.19357" lon="6.61088">
        <ele>141.23</ele>
        <time>2020-05-31T08:53:38Z</time>
      </trkpt>
      <trkpt lat="43.19353" lon="6.61116">
        <ele>141.43</ele>
        <time>2020-05-31T08:54:03Z</time>
      </trkpt>
      <trkpt lat="43.19353" lon="6.61141">
        <ele>141.54</ele>
        <time>2020-05-31T08:54:19Z</time>
      </trkpt>
      <trkpt lat="43.19346" lon="6.61163">
        <ele>141.64</ele>
        <time>2020-05-31T08:54:38Z</time>
      </trkpt>
      <trkpt lat="43.19342" lon="6.61188">
        <ele>141.91</ele>
        <time>2020-05-31T08:55:18Z</time>
      </trkpt>
      <trkpt lat="43.19336" lon="6.61211">
        <ele>142.07</ele>
        <time>2020-05-31T08:55:48Z</time>
      </trkpt>
      <trkpt lat="43.19323" lon="6.61229">
        <ele>142.73</ele>
        <time>2020-05-31T08:56:27Z</time>
      </trkpt>
      <trkpt lat="43.19314" lon="6.6125">
        <ele>143.23</ele>
        <time>2020-05-31T08:56:54Z</time>
      </trkpt>
      <trkpt lat="43.19304" lon="6.61272">
        <ele>143.75</ele>
        <time>2020-05-31T08:57:12Z</time>
      </trkpt>
      <trkpt lat="43.19297" lon="6.61295">
        <ele>145.11</ele>
        <time>2020-05-31T08:57:45Z</time>
      </trkpt>
      <trkpt lat="43.19288" lon="6.61319">
        <ele>146.25</ele>
        <time>2020-05-31T08:58:13Z</time>
      </trkpt>
      <trkpt lat="43.19288" lon="6.61344">
        <ele>147.65</ele>
        <time>2020-05-31T08:58:41Z</time>
      </trkpt>
      <trkpt lat="43.19288" lon="6.6137">
        <ele>149.01</ele>
        <time>2020-05-31T08:59:01Z</time>
      </trkpt>
      <trkpt lat="43.19296" lon="6.61393">
        <ele>150.4</ele>
        <time>2020-05-31T08:59:16Z</time>
      </trkpt>
      <trkpt lat="43.19299" lon="6.61417">
        <ele>151.86</ele>
        <time>2020-05-31T08:59:30Z</time>
      </trkpt>
      <trkpt lat="43.19302" lon="6.61443">
        <ele>153.49</ele>
        <time>2020-05-31T08:59:45Z</time>
      </trkpt>
      <trkpt lat="43.19301" lon="6.61468">
        <ele>155.05</ele>
        <time>2020-05-31T08:59:59Z</time>
      </trkpt>
      <trkpt lat="43.19297" lon="6.61493">
        <ele>156.4</ele>
        <time>2020-05-31T09:00:12Z</time>
      </trkpt>
      <trkpt lat="43.19295" lon="6.61518">
        <ele>157.66</ele>
        <time>2020-05-31T09:00:26Z</time>
      </trkpt>
      <trkpt lat="43.19303" lon="6.61541">
        <ele>158.97</ele>
        <time>2020-05-31T09:00:42Z</time>
      </trkpt>
      <trkpt lat="43.19322" lon="6.61548">
        <ele>160.09</ele>
        <time>2020-05-31T09:00:58Z</time>
      </trkpt>
      <trkpt lat="43.1932" lon="6.61575">
        <ele>161.61</ele>
        <time>2020-05-31T09:01:41Z</time>
      </trkpt>
      <trkpt lat="43.19303" lon="6.61583">
        <ele>164.66</ele>
        <time>2020-05-31T09:02:50Z</time>
      </trkpt>
      <trkpt lat="43.19293" lon="6.61604">
        <ele>179.12</ele>
        <time>2020-05-31T09:05:51Z</time>
      </trkpt>
      <trkpt lat="43.19283" lon="6.61626">
        <ele>181.37</ele>
        <time>2020-05-31T09:06:19Z</time>
      </trkpt>
      <trkpt lat="43.19279" lon="6.6165">
        <ele>182.59</ele>
        <time>2020-05-31T09:06:50Z</time>
      </trkpt>
      <trkpt lat="43.19274" lon="6.61674">
        <ele>183.81</ele>
        <time>2020-05-31T09:07:20Z</time>
      </trkpt>
      <trkpt lat="43.19272" lon="6.617">
        <ele>184.21</ele>
        <time>2020-05-31T09:07:43Z</time>
      </trkpt>
      <trkpt lat="43.19271" lon="6.61725">
        <ele>184.35</ele>
        <time>2020-05-31T09:08:03Z</time>
      </trkpt>
      <trkpt lat="43.19267" lon="6.6175">
        <ele>184.33</ele>
        <time>2020-05-31T09:08:21Z</time>
      </trkpt>
      <trkpt lat="43.1926" lon="6.61774">
        <ele>184.19</ele>
        <time>2020-05-31T09:08:38Z</time>
      </trkpt>
      <trkpt lat="43.19258" lon="6.61798">
        <ele>183.98</ele>
        <time>2020-05-31T09:08:54Z</time>
      </trkpt>
      <trkpt lat="43.1925" lon="6.61825">
        <ele>183.72</ele>
        <time>2020-05-31T09:09:10Z</time>
      </trkpt>
      <trkpt lat="43.19241" lon="6.61846">
        <ele>183.42</ele>
        <time>2020-05-31T09:09:26Z</time>
      </trkpt>
      <trkpt lat="43.19236" lon="6.6187">
        <ele>183.13</ele>
        <time>2020-05-31T09:09:40Z</time>
      </trkpt>
      <trkpt lat="43.19231" lon="6.61894">
        <ele>182.46</ele>
        <time>2020-05-31T09:10:04Z</time>
      </trkpt>
      <trkpt lat="43.19216" lon="6.61911">
        <ele>181.87</ele>
        <time>2020-05-31T09:10:24Z</time>
      </trkpt>
      <trkpt lat="43.19198" lon="6.61917">
        <ele>181.27</ele>
        <time>2020-05-31T09:10:46Z</time>
      </trkpt>
      <trkpt lat="43.19188" lon="6.61943">
        <ele>180.44</ele>
        <time>2020-05-31T09:11:17Z</time>
      </trkpt>
      <trkpt lat="43.19188" lon="6.61968">
        <ele>179.81</ele>
        <time>2020-05-31T09:11:38Z</time>
      </trkpt>
      <trkpt lat="43.19176" lon="6.61987">
        <ele>179.61</ele>
        <time>2020-05-31T09:11:44Z</time>
      </trkpt>
      <trkpt lat="43.19164" lon="6.62008">
        <ele>179.31</ele>
        <time>2020-05-31T09:11:52Z</time>
      </trkpt>
      <trkpt lat="43.19153" lon="6.62029">
        <ele>178.39</ele>
        <time>2020-05-31T09:12:24Z</time>
      </trkpt>
      <trkpt lat="43.19139" lon="6.62046">
        <ele>177.63</ele>
        <time>2020-05-31T09:12:53Z</time>
      </trkpt>
      <trkpt lat="43.19132" lon="6.62071">
        <ele>176.76</ele>
        <time>2020-05-31T09:13:29Z</time>
      </trkpt>
      <trkpt lat="43.1912" lon="6.6209">
        <ele>176.09</ele>
        <time>2020-05-31T09:13:48Z</time>
      </trkpt>
      <trkpt lat="43.19107" lon="6.62108">
        <ele>175.5</ele>
        <time>2020-05-31T09:14:07Z</time>
      </trkpt>
      <trkpt lat="43.19094" lon="6.62127">
        <ele>175.12</ele>
        <time>2020-05-31T09:14:20Z</time>
      </trkpt>
      <trkpt lat="43.19081" lon="6.62144">
        <ele>174.55</ele>
        <time>2020-05-31T09:14:43Z</time>
      </trkpt>
      <trkpt lat="43.19069" lon="6.62164">
        <ele>173.98</ele>
        <time>2020-05-31T09:15:11Z</time>
      </trkpt>
      <trkpt lat="43.19064" lon="6.62194">
        <ele>173.72</ele>
        <time>2020-05-31T09:15:22Z</time>
      </trkpt>
      <trkpt lat="43.19062" lon="6.6222">
        <ele>173.44</ele>
        <time>2020-05-31T09:15:34Z</time>
      </trkpt>
      <trkpt lat="43.19057" lon="6.62244">
        <ele>173.05</ele>
        <time>2020-05-31T09:15:50Z</time>
      </trkpt>
      <trkpt lat="43.19045" lon="6.62263">
        <ele>172.64</ele>
        <time>2020-05-31T09:16:06Z</time>
      </trkpt>
      <trkpt lat="43.19031" lon="6.62278">
        <ele>172.19</ele>
        <time>2020-05-31T09:16:25Z</time>
      </trkpt>
      <trkpt lat="43.19017" lon="6.62293">
        <ele>171.66</ele>
        <time>2020-05-31T09:16:47Z</time>
      </trkpt>
      <trkpt lat="43.19004" lon="6.62311">
        <ele>171.21</ele>
        <time>2020-05-31T09:17:06Z</time>
      </trkpt>
      <trkpt lat="43.18991" lon="6.62328">
        <ele>170.82</ele>
        <time>2020-05-31T09:17:27Z</time>
      </trkpt>
      <trkpt lat="43.18983" lon="6.62351">
        <ele>170.47</ele>
        <time>2020-05-31T09:17:45Z</time>
      </trkpt>
      <trkpt lat="43.18984" lon="6.62376">
        <ele>170.09</ele>
        <time>2020-05-31T09:18:00Z</time>
      </trkpt>
      <trkpt lat="43.19" lon="6.62391">
        <ele>168.72</ele>
        <time>2020-05-31T09:19:20Z</time>
      </trkpt>
      <trkpt lat="43.19016" lon="6.62403">
        <ele>168.25</ele>
        <time>2020-05-31T09:19:38Z</time>
      </trkpt>
      <trkpt lat="43.19032" lon="6.62415">
        <ele>167.9</ele>
        <time>2020-05-31T09:19:56Z</time>
      </trkpt>
      <trkpt lat="43.1905" lon="6.62424">
        <ele>167.56</ele>
        <time>2020-05-31T09:20:14Z</time>
      </trkpt>
      <trkpt lat="43.19067" lon="6.62432">
        <ele>167.17</ele>
        <time>2020-05-31T09:20:36Z</time>
      </trkpt>
      <trkpt lat="43.19086" lon="6.62434">
        <ele>166.72</ele>
        <time>2020-05-31T09:20:56Z</time>
      </trkpt>
      <trkpt lat="43.19104" lon="6.62427">
        <ele>166.32</ele>
        <time>2020-05-31T09:21:12Z</time>
      </trkpt>
      <trkpt lat="43.1912" lon="6.62415">
        <ele>165.83</ele>
        <time>2020-05-31T09:21:34Z</time>
      </trkpt>
      <trkpt lat="43.19137" lon="6.62405">
        <ele>165.55</ele>
        <time>2020-05-31T09:21:47Z</time>
      </trkpt>
      <trkpt lat="43.19156" lon="6.62409">
        <ele>165.24</ele>
        <time>2020-05-31T09:22:01Z</time>
      </trkpt>
      <trkpt lat="43.19169" lon="6.62425">
        <ele>164.76</ele>
        <time>2020-05-31T09:22:20Z</time>
      </trkpt>
      <trkpt lat="43.19185" lon="6.62437">
        <ele>164.21</ele>
        <time>2020-05-31T09:22:38Z</time>
      </trkpt>
      <trkpt lat="43.19193" lon="6.6246">
        <ele>163.76</ele>
        <time>2020-05-31T09:22:55Z</time>
      </trkpt>
      <trkpt lat="43.19197" lon="6.62486">
        <ele>163.45</ele>
        <time>2020-05-31T09:23:08Z</time>
      </trkpt>
      <trkpt lat="43.19215" lon="6.6249">
        <ele>162.94</ele>
        <time>2020-05-31T09:23:29Z</time>
      </trkpt>
      <trkpt lat="43.19196" lon="6.62493">
        <ele>159.82</ele>
        <time>2020-05-31T09:27:55Z</time>
      </trkpt>
      <trkpt lat="43.19178" lon="6.62499">
        <ele>158.19</ele>
        <time>2020-05-31T09:28:29Z</time>
      </trkpt>
      <trkpt lat="43.19162" lon="6.62512">
        <ele>157.56</ele>
        <time>2020-05-31T09:28:43Z</time>
      </trkpt>
      <trkpt lat="43.1915" lon="6.62531">
        <ele>156.95</ele>
        <time>2020-05-31T09:28:58Z</time>
      </trkpt>
      <trkpt lat="43.1914" lon="6.62552">
        <ele>156.33</ele>
        <time>2020-05-31T09:29:11Z</time>
      </trkpt>
      <trkpt lat="43.19126" lon="6.62571">
        <ele>155.46</ele>
        <time>2020-05-31T09:29:30Z</time>
      </trkpt>
      <trkpt lat="43.19113" lon="6.62587">
        <ele>154.76</ele>
        <time>2020-05-31T09:29:48Z</time>
      </trkpt>
      <trkpt lat="43.19098" lon="6.62603">
        <ele>154.25</ele>
        <time>2020-05-31T09:30:03Z</time>
      </trkpt>
      <trkpt lat="43.19082" lon="6.62615">
        <ele>153.86</ele>
        <time>2020-05-31T09:30:17Z</time>
      </trkpt>
      <trkpt lat="43.19063" lon="6.62615">
        <ele>153.08</ele>
        <time>2020-05-31T09:31:03Z</time>
      </trkpt>
      <trkpt lat="43.19044" lon="6.62617">
        <ele>152.63</ele>
        <time>2020-05-31T09:31:19Z</time>
      </trkpt>
      <trkpt lat="43.1903" lon="6.62601">
        <ele>151.67</ele>
        <time>2020-05-31T09:31:47Z</time>
      </trkpt>
      <trkpt lat="43.19021" lon="6.6258">
        <ele>150.98</ele>
        <time>2020-05-31T09:32:04Z</time>
      </trkpt>
      <trkpt lat="43.19003" lon="6.62574">
        <ele>150.13</ele>
        <time>2020-05-31T09:32:23Z</time>
      </trkpt>
      <trkpt lat="43.18985" lon="6.62581">
        <ele>149.27</ele>
        <time>2020-05-31T09:32:38Z</time>
      </trkpt>
      <trkpt lat="43.18968" lon="6.6259">
        <ele>148.25</ele>
        <time>2020-05-31T09:32:54Z</time>
      </trkpt>
      <trkpt lat="43.1895" lon="6.62596">
        <ele>147.42</ele>
        <time>2020-05-31T09:33:09Z</time>
      </trkpt>
      <trkpt lat="43.18931" lon="6.62596">
        <ele>146.31</ele>
        <time>2020-05-31T09:33:30Z</time>
      </trkpt>
      <trkpt lat="43.18916" lon="6.6261">
        <ele>145.05</ele>
        <time>2020-05-31T09:33:49Z</time>
      </trkpt>
      <trkpt lat="43.18902" lon="6.62625">
        <ele>144.27</ele>
        <time>2020-05-31T09:34:00Z</time>
      </trkpt>
      <trkpt lat="43.18889" lon="6.62644">
        <ele>143.18</ele>
        <time>2020-05-31T09:34:15Z</time>
      </trkpt>
      <trkpt lat="43.18875" lon="6.6266">
        <ele>142.55</ele>
        <time>2020-05-31T09:34:23Z</time>
      </trkpt>
      <trkpt lat="43.18859" lon="6.62676">
        <ele>141.38</ele>
        <time>2020-05-31T09:34:35Z</time>
      </trkpt>
      <trkpt lat="43.18846" lon="6.62694">
        <ele>139.58</ele>
        <time>2020-05-31T09:34:51Z</time>
      </trkpt>
      <trkpt lat="43.18831" lon="6.62709">
        <ele>137.99</ele>
        <time>2020-05-31T09:35:06Z</time>
      </trkpt>
      <trkpt lat="43.18815" lon="6.62722">
        <ele>136.6</ele>
        <time>2020-05-31T09:35:23Z</time>
      </trkpt>
      <trkpt lat="43.18797" lon="6.62728">
        <ele>135.29</ele>
        <time>2020-05-31T09:35:40Z</time>
      </trkpt>
      <trkpt lat="43.18779" lon="6.62732">
        <ele>133.8</ele>
        <time>2020-05-31T09:35:59Z</time>
      </trkpt>
      <trkpt lat="43.1876" lon="6.62737">
        <ele>132.79</ele>
        <time>2020-05-31T09:36:15Z</time>
      </trkpt>
      <trkpt lat="43.18741" lon="6.62737">
        <ele>131.84</ele>
        <time>2020-05-31T09:36:32Z</time>
      </trkpt>
      <trkpt lat="43.18723" lon="6.62733">
        <ele>130.75</ele>
        <time>2020-05-31T09:36:52Z</time>
      </trkpt>
      <trkpt lat="43.18706" lon="6.62726">
        <ele>130.01</ele>
        <time>2020-05-31T09:37:05Z</time>
      </trkpt>
      <trkpt lat="43.18687" lon="6.62729">
        <ele>129.05</ele>
        <time>2020-05-31T09:37:21Z</time>
      </trkpt>
      <trkpt lat="43.18671" lon="6.62742">
        <ele>128.05</ele>
        <time>2020-05-31T09:37:38Z</time>
      </trkpt>
      <trkpt lat="43.18653" lon="6.62751">
        <ele>127.07</ele>
        <time>2020-05-31T09:37:54Z</time>
      </trkpt>
      <trkpt lat="43.18634" lon="6.6275">
        <ele>125.97</ele>
        <time>2020-05-31T09:38:10Z</time>
      </trkpt>
      <trkpt lat="43.18615" lon="6.62752">
        <ele>124.53</ele>
        <time>2020-05-31T09:38:27Z</time>
      </trkpt>
      <trkpt lat="43.186" lon="6.62769">
        <ele>122.51</ele>
        <time>2020-05-31T09:38:44Z</time>
      </trkpt>
      <trkpt lat="43.18586" lon="6.62785">
        <ele>120.79</ele>
        <time>2020-05-31T09:38:56Z</time>
      </trkpt>
      <trkpt lat="43.18568" lon="6.62795">
        <ele>118.86</ele>
        <time>2020-05-31T09:39:11Z</time>
      </trkpt>
      <trkpt lat="43.1855" lon="6.62798">
        <ele>117.17</ele>
        <time>2020-05-31T09:39:27Z</time>
      </trkpt>
      <trkpt lat="43.18533" lon="6.62809">
        <ele>115.41</ele>
        <time>2020-05-31T09:39:44Z</time>
      </trkpt>
      <trkpt lat="43.18515" lon="6.62817">
        <ele>113.64</ele>
        <time>2020-05-31T09:40:01Z</time>
      </trkpt>
      <trkpt lat="43.18499" lon="6.62828">
        <ele>112.11</ele>
        <time>2020-05-31T09:40:17Z</time>
      </trkpt>
      <trkpt lat="43.18482" lon="6.62839">
        <ele>110.79</ele>
        <time>2020-05-31T09:40:33Z</time>
      </trkpt>
      <trkpt lat="43.18465" lon="6.62848">
        <ele>109.73</ele>
        <time>2020-05-31T09:40:47Z</time>
      </trkpt>
      <trkpt lat="43.1845" lon="6.62863">
        <ele>108.76</ele>
        <time>2020-05-31T09:41:02Z</time>
      </trkpt>
      <trkpt lat="43.18436" lon="6.62879">
        <ele>107.96</ele>
        <time>2020-05-31T09:41:16Z</time>
      </trkpt>
      <trkpt lat="43.1842" lon="6.62893">
        <ele>107.18</ele>
        <time>2020-05-31T09:41:31Z</time>
      </trkpt>
      <trkpt lat="43.18401" lon="6.62897">
        <ele>106.29</ele>
        <time>2020-05-31T09:41:48Z</time>
      </trkpt>
      <trkpt lat="43.18383" lon="6.62892">
        <ele>105.54</ele>
        <time>2020-05-31T09:42:02Z</time>
      </trkpt>
      <trkpt lat="43.18365" lon="6.62886">
        <ele>104.7</ele>
        <time>2020-05-31T09:42:19Z</time>
      </trkpt>
      <trkpt lat="43.18347" lon="6.62886">
        <ele>103.95</ele>
        <time>2020-05-31T09:42:37Z</time>
      </trkpt>
      <trkpt lat="43.18328" lon="6.62885">
        <ele>103.28</ele>
        <time>2020-05-31T09:42:54Z</time>
      </trkpt>
      <trkpt lat="43.18309" lon="6.62883">
        <ele>102.77</ele>
        <time>2020-05-31T09:43:09Z</time>
      </trkpt>
      <trkpt lat="43.18291" lon="6.62879">
        <ele>102.05</ele>
        <time>2020-05-31T09:43:27Z</time>
      </trkpt>
      <trkpt lat="43.18273" lon="6.62871">
        <ele>101.23</ele>
        <time>2020-05-31T09:43:45Z</time>
      </trkpt>
      <trkpt lat="43.18257" lon="6.6286">
        <ele>100.41</ele>
        <time>2020-05-31T09:44:00Z</time>
      </trkpt>
      <trkpt lat="43.18239" lon="6.62854">
        <ele>99.35</ele>
        <time>2020-05-31T09:44:16Z</time>
      </trkpt>
      <trkpt lat="43.18221" lon="6.62855">
        <ele>98.21</ele>
        <time>2020-05-31T09:44:31Z</time>
      </trkpt>
      <trkpt lat="43.18201" lon="6.62851">
        <ele>96.93</ele>
        <time>2020-05-31T09:44:46Z</time>
      </trkpt>
      <trkpt lat="43.18182" lon="6.62849">
        <ele>95.19</ele>
        <time>2020-05-31T09:45:05Z</time>
      </trkpt>
      <trkpt lat="43.18164" lon="6.6284">
        <ele>93.84</ele>
        <time>2020-05-31T09:45:20Z</time>
      </trkpt>
      <trkpt lat="43.18148" lon="6.62831">
        <ele>92.21</ele>
        <time>2020-05-31T09:45:36Z</time>
      </trkpt>
      <trkpt lat="43.18133" lon="6.62818">
        <ele>90.44</ele>
        <time>2020-05-31T09:45:51Z</time>
      </trkpt>
      <trkpt lat="43.18118" lon="6.62801">
        <ele>88.42</ele>
        <time>2020-05-31T09:46:09Z</time>
      </trkpt>
      <trkpt lat="43.18103" lon="6.62785">
        <ele>85.36</ele>
        <time>2020-05-31T09:46:39Z</time>
      </trkpt>
      <trkpt lat="43.18088" lon="6.62772">
        <ele>81.65</ele>
        <time>2020-05-31T09:47:06Z</time>
      </trkpt>
      <trkpt lat="43.1807" lon="6.62775">
        <ele>77.14</ele>
        <time>2020-05-31T09:48:06Z</time>
      </trkpt>
      <trkpt lat="43.18052" lon="6.62771">
        <ele>75.07</ele>
        <time>2020-05-31T09:48:30Z</time>
      </trkpt>
      <trkpt lat="43.18033" lon="6.62764">
        <ele>73.36</ele>
        <time>2020-05-31T09:48:53Z</time>
      </trkpt>
      <trkpt lat="43.18016" lon="6.62754">
        <ele>72.24</ele>
        <time>2020-05-31T09:49:09Z</time>
      </trkpt>
      <trkpt lat="43.18" lon="6.62741">
        <ele>71.23</ele>
        <time>2020-05-31T09:49:26Z</time>
      </trkpt>
      <trkpt lat="43.17997" lon="6.62717">
        <ele>70.18</ele>
        <time>2020-05-31T09:49:44Z</time>
      </trkpt>
      <trkpt lat="43.17995" lon="6.62742">
        <ele>65.34</ele>
        <time>2020-05-31T09:51:08Z</time>
      </trkpt>
      <trkpt lat="43.18006" lon="6.62763">
        <ele>63.82</ele>
        <time>2020-05-31T09:51:37Z</time>
      </trkpt>
      <trkpt lat="43.18024" lon="6.62772">
        <ele>63.2</ele>
        <time>2020-05-31T09:51:51Z</time>
      </trkpt>
      <trkpt lat="43.18041" lon="6.6278">
        <ele>62.6</ele>
        <time>2020-05-31T09:52:07Z</time>
      </trkpt>
      <trkpt lat="43.18059" lon="6.62786">
        <ele>62.12</ele>
        <time>2020-05-31T09:52:22Z</time>
      </trkpt>
      <trkpt lat="43.18078" lon="6.62791">
        <ele>61.49</ele>
        <time>2020-05-31T09:52:41Z</time>
      </trkpt>
      <trkpt lat="43.18095" lon="6.62799">
        <ele>60.95</ele>
        <time>2020-05-31T09:52:56Z</time>
      </trkpt>
      <trkpt lat="43.1811" lon="6.62814">
        <ele>60.45</ele>
        <time>2020-05-31T09:53:11Z</time>
      </trkpt>
      <trkpt lat="43.18125" lon="6.6283">
        <ele>60.04</ele>
        <time>2020-05-31T09:53:26Z</time>
      </trkpt>
      <trkpt lat="43.1814" lon="6.62845">
        <ele>59.61</ele>
        <time>2020-05-31T09:53:42Z</time>
      </trkpt>
      <trkpt lat="43.18158" lon="6.62857">
        <ele>59.11</ele>
        <time>2020-05-31T09:54:03Z</time>
      </trkpt>
      <trkpt lat="43.18177" lon="6.62861">
        <ele>58.69</ele>
        <time>2020-05-31T09:54:23Z</time>
      </trkpt>
      <trkpt lat="43.18195" lon="6.62867">
        <ele>58.46</ele>
        <time>2020-05-31T09:54:34Z</time>
      </trkpt>
      <trkpt lat="43.18213" lon="6.62869">
        <ele>58.16</ele>
        <time>2020-05-31T09:54:51Z</time>
      </trkpt>
      <trkpt lat="43.18232" lon="6.6287">
        <ele>57.97</ele>
        <time>2020-05-31T09:55:04Z</time>
      </trkpt>
      <trkpt lat="43.18215" lon="6.62878">
        <ele>56.21</ele>
        <time>2020-05-31T09:56:32Z</time>
      </trkpt>
      <trkpt lat="43.18234" lon="6.6287">
        <ele>55.36</ele>
        <time>2020-05-31T09:56:56Z</time>
      </trkpt>
      <trkpt lat="43.18252" lon="6.62877">
        <ele>54.9</ele>
        <time>2020-05-31T09:57:16Z</time>
      </trkpt>
      <trkpt lat="43.18247" lon="6.62901">
        <ele>53.83</ele>
        <time>2020-05-31T09:58:22Z</time>
      </trkpt>
      <trkpt lat="43.18265" lon="6.62907">
        <ele>53.32</ele>
        <time>2020-05-31T09:58:54Z</time>
      </trkpt>
      <trkpt lat="43.18247" lon="6.62918">
        <ele>49.53</ele>
        <time>2020-05-31T10:03:33Z</time>
      </trkpt>
      <trkpt lat="43.18232" lon="6.62932">
        <ele>49.05</ele>
        <time>2020-05-31T10:03:46Z</time>
      </trkpt>
      <trkpt lat="43.18224" lon="6.62956">
        <ele>48.59</ele>
        <time>2020-05-31T10:03:59Z</time>
      </trkpt>
      <trkpt lat="43.18206" lon="6.62956">
        <ele>48.14</ele>
        <time>2020-05-31T10:04:13Z</time>
      </trkpt>
      <trkpt lat="43.18188" lon="6.62961">
        <ele>47.76</ele>
        <time>2020-05-31T10:04:26Z</time>
      </trkpt>
      <trkpt lat="43.18171" lon="6.62972">
        <ele>47.35</ele>
        <time>2020-05-31T10:04:43Z</time>
      </trkpt>
      <trkpt lat="43.18157" lon="6.62989">
        <ele>47.07</ele>
        <time>2020-05-31T10:04:57Z</time>
      </trkpt>
      <trkpt lat="43.18148" lon="6.6301">
        <ele>46.83</ele>
        <time>2020-05-31T10:05:11Z</time>
      </trkpt>
      <trkpt lat="43.18138" lon="6.63032">
        <ele>46.6</ele>
        <time>2020-05-31T10:05:26Z</time>
      </trkpt>
      <trkpt lat="43.1813" lon="6.63054">
        <ele>46.44</ele>
        <time>2020-05-31T10:05:40Z</time>
      </trkpt>
      <trkpt lat="43.1812" lon="6.63076">
        <ele>46.34</ele>
        <time>2020-05-31T10:05:53Z</time>
      </trkpt>
      <trkpt lat="43.18108" lon="6.63096">
        <ele>46.29</ele>
        <time>2020-05-31T10:06:10Z</time>
      </trkpt>
      <trkpt lat="43.18099" lon="6.63118">
        <ele>46.27</ele>
        <time>2020-05-31T10:06:26Z</time>
      </trkpt>
      <trkpt lat="43.18091" lon="6.63141">
        <ele>46.28</ele>
        <time>2020-05-31T10:06:41Z</time>
      </trkpt>
      <trkpt lat="43.18084" lon="6.63163">
        <ele>46.31</ele>
        <time>2020-05-31T10:06:55Z</time>
      </trkpt>
      <trkpt lat="43.18074" lon="6.63185">
        <ele>46.42</ele>
        <time>2020-05-31T10:07:17Z</time>
      </trkpt>
      <trkpt lat="43.18064" lon="6.63206">
        <ele>46.61</ele>
        <time>2020-05-31T10:07:42Z</time>
      </trkpt>
      <trkpt lat="43.18047" lon="6.63216">
        <ele>46.84</ele>
        <time>2020-05-31T10:08:01Z</time>
      </trkpt>
      <trkpt lat="43.18032" lon="6.63229">
        <ele>47.02</ele>
        <time>2020-05-31T10:08:15Z</time>
      </trkpt>
      <trkpt lat="43.18017" lon="6.63243">
        <ele>47.23</ele>
        <time>2020-05-31T10:08:29Z</time>
      </trkpt>
      <trkpt lat="43.18" lon="6.63254">
        <ele>47.44</ele>
        <time>2020-05-31T10:08:42Z</time>
      </trkpt>
      <trkpt lat="43.17983" lon="6.63265">
        <ele>47.83</ele>
        <time>2020-05-31T10:09:05Z</time>
      </trkpt>
      <trkpt lat="43.17968" lon="6.63279">
        <ele>48.17</ele>
        <time>2020-05-31T10:09:22Z</time>
      </trkpt>
      <trkpt lat="43.17952" lon="6.63292">
        <ele>48.49</ele>
        <time>2020-05-31T10:09:38Z</time>
      </trkpt>
      <trkpt lat="43.17937" lon="6.63307">
        <ele>48.76</ele>
        <time>2020-05-31T10:09:52Z</time>
      </trkpt>
      <trkpt lat="43.17922" lon="6.63321">
        <ele>49.1</ele>
        <time>2020-05-31T10:10:08Z</time>
      </trkpt>
      <trkpt lat="43.17908" lon="6.63339">
        <ele>49.41</ele>
        <time>2020-05-31T10:10:22Z</time>
      </trkpt>
      <trkpt lat="43.17895" lon="6.63357">
        <ele>49.81</ele>
        <time>2020-05-31T10:10:40Z</time>
      </trkpt>
      <trkpt lat="43.17881" lon="6.63374">
        <ele>50.14</ele>
        <time>2020-05-31T10:10:56Z</time>
      </trkpt>
      <trkpt lat="43.17864" lon="6.63385">
        <ele>50.5</ele>
        <time>2020-05-31T10:11:15Z</time>
      </trkpt>
      <trkpt lat="43.17848" lon="6.63399">
        <ele>50.79</ele>
        <time>2020-05-31T10:11:31Z</time>
      </trkpt>
      <trkpt lat="43.17835" lon="6.63419">
        <ele>51.05</ele>
        <time>2020-05-31T10:11:44Z</time>
      </trkpt>
      <trkpt lat="43.17824" lon="6.6344">
        <ele>51.33</ele>
        <time>2020-05-31T10:11:58Z</time>
      </trkpt>
      <trkpt lat="43.17807" lon="6.63454">
        <ele>51.68</ele>
        <time>2020-05-31T10:12:15Z</time>
      </trkpt>
      <trkpt lat="43.17796" lon="6.63476">
        <ele>52.13</ele>
        <time>2020-05-31T10:12:44Z</time>
      </trkpt>
      <trkpt lat="43.17778" lon="6.6347">
        <ele>53.85</ele>
        <time>2020-05-31T10:15:12Z</time>
      </trkpt>
      <trkpt lat="43.17761" lon="6.63482">
        <ele>54.13</ele>
        <time>2020-05-31T10:15:28Z</time>
      </trkpt>
      <trkpt lat="43.17747" lon="6.63498">
        <ele>54.36</ele>
        <time>2020-05-31T10:15:45Z</time>
      </trkpt>
      <trkpt lat="43.17734" lon="6.63517">
        <ele>54.59</ele>
        <time>2020-05-31T10:16:08Z</time>
      </trkpt>
      <trkpt lat="43.17726" lon="6.63539">
        <ele>54.74</ele>
        <time>2020-05-31T10:16:32Z</time>
      </trkpt>
      <trkpt lat="43.17717" lon="6.63563">
        <ele>54.82</ele>
        <time>2020-05-31T10:16:48Z</time>
      </trkpt>
      <trkpt lat="43.17707" lon="6.63584">
        <ele>54.88</ele>
        <time>2020-05-31T10:17:03Z</time>
      </trkpt>
      <trkpt lat="43.17694" lon="6.63602">
        <ele>54.98</ele>
        <time>2020-05-31T10:17:42Z</time>
      </trkpt>
      <trkpt lat="43.17684" lon="6.63625">
        <ele>55.04</ele>
        <time>2020-05-31T10:17:58Z</time>
      </trkpt>
      <trkpt lat="43.17674" lon="6.63645">
        <ele>55.1</ele>
        <time>2020-05-31T10:18:14Z</time>
      </trkpt>
      <trkpt lat="43.17664" lon="6.63667">
        <ele>55.11</ele>
        <time>2020-05-31T10:18:30Z</time>
      </trkpt>
      <trkpt lat="43.17657" lon="6.6369">
        <ele>55.09</ele>
        <time>2020-05-31T10:18:46Z</time>
      </trkpt>
      <trkpt lat="43.1765" lon="6.63714">
        <ele>55.07</ele>
        <time>2020-05-31T10:19:00Z</time>
      </trkpt>
      <trkpt lat="43.17645" lon="6.63739">
        <ele>55.01</ele>
        <time>2020-05-31T10:19:20Z</time>
      </trkpt>
      <trkpt lat="43.1764" lon="6.63764">
        <ele>54.96</ele>
        <time>2020-05-31T10:19:33Z</time>
      </trkpt>
      <trkpt lat="43.17638" lon="6.63788">
        <ele>54.91</ele>
        <time>2020-05-31T10:19:46Z</time>
      </trkpt>
      <trkpt lat="43.17633" lon="6.63813">
        <ele>54.85</ele>
        <time>2020-05-31T10:20:04Z</time>
      </trkpt>
      <trkpt lat="43.17627" lon="6.63837">
        <ele>54.77</ele>
        <time>2020-05-31T10:20:21Z</time>
      </trkpt>
      <trkpt lat="43.17617" lon="6.63859">
        <ele>54.61</ele>
        <time>2020-05-31T10:20:45Z</time>
      </trkpt>
      <trkpt lat="43.17607" lon="6.63879">
        <ele>54.38</ele>
        <time>2020-05-31T10:21:06Z</time>
      </trkpt>
      <trkpt lat="43.17597" lon="6.639">
        <ele>54.11</ele>
        <time>2020-05-31T10:21:25Z</time>
      </trkpt>
      <trkpt lat="43.17584" lon="6.63918">
        <ele>53.56</ele>
        <time>2020-05-31T10:22:15Z</time>
      </trkpt>
      <trkpt lat="43.17571" lon="6.63938">
        <ele>53.25</ele>
        <time>2020-05-31T10:22:32Z</time>
      </trkpt>
      <trkpt lat="43.17558" lon="6.63958">
        <ele>52.94</ele>
        <time>2020-05-31T10:22:49Z</time>
      </trkpt>
      <trkpt lat="43.17551" lon="6.63983">
        <ele>52.66</ele>
        <time>2020-05-31T10:23:05Z</time>
      </trkpt>
      <trkpt lat="43.17542" lon="6.64004">
        <ele>52.14</ele>
        <time>2020-05-31T10:23:40Z</time>
      </trkpt>
      <trkpt lat="43.17529" lon="6.64022">
        <ele>51.63</ele>
        <time>2020-05-31T10:24:04Z</time>
      </trkpt>
      <trkpt lat="43.17515" lon="6.64038">
        <ele>51.15</ele>
        <time>2020-05-31T10:24:27Z</time>
      </trkpt>
      <trkpt lat="43.17499" lon="6.64051">
        <ele>50.71</ele>
        <time>2020-05-31T10:24:47Z</time>
      </trkpt>
      <trkpt lat="43.17482" lon="6.64043">
        <ele>50.3</ele>
        <time>2020-05-31T10:25:05Z</time>
      </trkpt>
      <trkpt lat="43.17467" lon="6.64028">
        <ele>49.67</ele>
        <time>2020-05-31T10:25:33Z</time>
      </trkpt>
      <trkpt lat="43.17454" lon="6.64009">
        <ele>49.35</ele>
        <time>2020-05-31T10:25:48Z</time>
      </trkpt>
      <trkpt lat="43.17439" lon="6.63994">
        <ele>48.84</ele>
        <time>2020-05-31T10:26:14Z</time>
      </trkpt>
      <trkpt lat="43.17426" lon="6.63977">
        <ele>48.48</ele>
        <time>2020-05-31T10:26:33Z</time>
      </trkpt>
      <trkpt lat="43.17412" lon="6.63961">
        <ele>48.15</ele>
        <time>2020-05-31T10:26:51Z</time>
      </trkpt>
      <trkpt lat="43.17396" lon="6.63948">
        <ele>47.88</ele>
        <time>2020-05-31T10:27:07Z</time>
      </trkpt>
      <trkpt lat="43.1738" lon="6.63934">
        <ele>47.61</ele>
        <time>2020-05-31T10:27:24Z</time>
      </trkpt>
      <trkpt lat="43.17364" lon="6.63925">
        <ele>47.33</ele>
        <time>2020-05-31T10:27:42Z</time>
      </trkpt>
      <trkpt lat="43.17347" lon="6.63912">
        <ele>47.05</ele>
        <time>2020-05-31T10:28:00Z</time>
      </trkpt>
      <trkpt lat="43.1733" lon="6.63903">
        <ele>46.78</ele>
        <time>2020-05-31T10:28:18Z</time>
      </trkpt>
      <trkpt lat="43.17313" lon="6.63911">
        <ele>46.36</ele>
        <time>2020-05-31T10:28:57Z</time>
      </trkpt>
      <trkpt lat="43.17297" lon="6.63924">
        <ele>45.91</ele>
        <time>2020-05-31T10:29:20Z</time>
      </trkpt>
      <trkpt lat="43.17283" lon="6.63939">
        <ele>45.52</ele>
        <time>2020-05-31T10:29:38Z</time>
      </trkpt>
      <trkpt lat="43.17265" lon="6.63943">
        <ele>45.13</ele>
        <time>2020-05-31T10:29:58Z</time>
      </trkpt>
      <trkpt lat="43.17247" lon="6.63945">
        <ele>43.13</ele>
        <time>2020-05-31T10:34:58Z</time>
      </trkpt>
      <trkpt lat="43.17243" lon="6.63969">
        <ele>37.87</ele>
        <time>2020-05-31T10:43:27Z</time>
      </trkpt>
      <trkpt lat="43.17233" lon="6.6399">
        <ele>37.33</ele>
        <time>2020-05-31T10:43:53Z</time>
      </trkpt>
      <trkpt lat="43.17221" lon="6.64011">
        <ele>37.04</ele>
        <time>2020-05-31T10:44:14Z</time>
      </trkpt>
      <trkpt lat="43.17213" lon="6.64033">
        <ele>36.81</ele>
        <time>2020-05-31T10:44:34Z</time>
      </trkpt>
      <trkpt lat="43.17202" lon="6.64054">
        <ele>36.62</ele>
        <time>2020-05-31T10:44:53Z</time>
      </trkpt>
      <trkpt lat="43.172" lon="6.64079">
        <ele>36.44</ele>
        <time>2020-05-31T10:45:16Z</time>
      </trkpt>
      <trkpt lat="43.17187" lon="6.64096">
        <ele>36.32</ele>
        <time>2020-05-31T10:45:46Z</time>
      </trkpt>
      <trkpt lat="43.17176" lon="6.64117">
        <ele>36.23</ele>
        <time>2020-05-31T10:46:02Z</time>
      </trkpt>
      <trkpt lat="43.17167" lon="6.6414">
        <ele>36.1</ele>
        <time>2020-05-31T10:46:16Z</time>
      </trkpt>
      <trkpt lat="43.17159" lon="6.64163">
        <ele>35.91</ele>
        <time>2020-05-31T10:46:33Z</time>
      </trkpt>
      <trkpt lat="43.17144" lon="6.64179">
        <ele>35.69</ele>
        <time>2020-05-31T10:46:51Z</time>
      </trkpt>
      <trkpt lat="43.1713" lon="6.64197">
        <ele>35.46</ele>
        <time>2020-05-31T10:47:09Z</time>
      </trkpt>
      <trkpt lat="43.17115" lon="6.64212">
        <ele>35.18</ele>
        <time>2020-05-31T10:47:27Z</time>
      </trkpt>
      <trkpt lat="43.17101" lon="6.64228">
        <ele>34.9</ele>
        <time>2020-05-31T10:47:59Z</time>
      </trkpt>
      <trkpt lat="43.17087" lon="6.64244">
        <ele>34.66</ele>
        <time>2020-05-31T10:48:20Z</time>
      </trkpt>
      <trkpt lat="43.17072" lon="6.6426">
        <ele>34.43</ele>
        <time>2020-05-31T10:48:47Z</time>
      </trkpt>
      <trkpt lat="43.17066" lon="6.64283">
        <ele>34.33</ele>
        <time>2020-05-31T10:49:10Z</time>
      </trkpt>
      <trkpt lat="43.17053" lon="6.64302">
        <ele>34.29</ele>
        <time>2020-05-31T10:49:36Z</time>
      </trkpt>
      <trkpt lat="43.17039" lon="6.64319">
        <ele>34.32</ele>
        <time>2020-05-31T10:50:06Z</time>
      </trkpt>
      <trkpt lat="43.17023" lon="6.64332">
        <ele>34.35</ele>
        <time>2020-05-31T10:50:24Z</time>
      </trkpt>
      <trkpt lat="43.17008" lon="6.64346">
        <ele>34.4</ele>
        <time>2020-05-31T10:50:39Z</time>
      </trkpt>
      <trkpt lat="43.16995" lon="6.64364">
        <ele>34.48</ele>
        <time>2020-05-31T10:51:00Z</time>
      </trkpt>
      <trkpt lat="43.1698" lon="6.6438">
        <ele>34.58</ele>
        <time>2020-05-31T10:51:16Z</time>
      </trkpt>
      <trkpt lat="43.16969" lon="6.64401">
        <ele>34.77</ele>
        <time>2020-05-31T10:51:34Z</time>
      </trkpt>
      <trkpt lat="43.16966" lon="6.64426">
        <ele>34.99</ele>
        <time>2020-05-31T10:51:51Z</time>
      </trkpt>
      <trkpt lat="43.16949" lon="6.64439">
        <ele>35.24</ele>
        <time>2020-05-31T10:52:10Z</time>
      </trkpt>
      <trkpt lat="43.16935" lon="6.64455">
        <ele>35.63</ele>
        <time>2020-05-31T10:52:37Z</time>
      </trkpt>
      <trkpt lat="43.16918" lon="6.64466">
        <ele>36</ele>
        <time>2020-05-31T10:53:03Z</time>
      </trkpt>
      <trkpt lat="43.16922" lon="6.6449">
        <ele>36.44</ele>
        <time>2020-05-31T10:53:32Z</time>
      </trkpt>
      <trkpt lat="43.16931" lon="6.64512">
        <ele>36.94</ele>
        <time>2020-05-31T10:53:58Z</time>
      </trkpt>
      <trkpt lat="43.16923" lon="6.64535">
        <ele>37.74</ele>
        <time>2020-05-31T10:54:36Z</time>
      </trkpt>
      <trkpt lat="43.16907" lon="6.64546">
        <ele>38.27</ele>
        <time>2020-05-31T10:55:02Z</time>
      </trkpt>
      <trkpt lat="43.169" lon="6.6457">
        <ele>38.93</ele>
        <time>2020-05-31T10:55:36Z</time>
      </trkpt>
      <trkpt lat="43.16884" lon="6.64581">
        <ele>41.54</ele>
        <time>2020-05-31T10:58:11Z</time>
      </trkpt>
      <trkpt lat="43.169" lon="6.6457">
        <ele>70.57</ele>
        <time>2020-05-31T11:48:17Z</time>
      </trkpt>
      <trkpt lat="43.16909" lon="6.64549">
        <ele>70.5</ele>
        <time>2020-05-31T11:49:01Z</time>
      </trkpt>
      <trkpt lat="43.16925" lon="6.64534">
        <ele>70.44</ele>
        <time>2020-05-31T11:49:30Z</time>
      </trkpt>
      <trkpt lat="43.16937" lon="6.64516">
        <ele>70.38</ele>
        <time>2020-05-31T11:50:00Z</time>
      </trkpt>
      <trkpt lat="43.16925" lon="6.64497">
        <ele>70.25</ele>
        <time>2020-05-31T11:50:29Z</time>
      </trkpt>
      <trkpt lat="43.16915" lon="6.64476">
        <ele>70.02</ele>
        <time>2020-05-31T11:51:03Z</time>
      </trkpt>
      <trkpt lat="43.16931" lon="6.64465">
        <ele>69.84</ele>
        <time>2020-05-31T11:51:28Z</time>
      </trkpt>
      <trkpt lat="43.1694" lon="6.64442">
        <ele>69.58</ele>
        <time>2020-05-31T11:51:58Z</time>
      </trkpt>
      <trkpt lat="43.16958" lon="6.64434">
        <ele>69.43</ele>
        <time>2020-05-31T11:52:17Z</time>
      </trkpt>
      <trkpt lat="43.16968" lon="6.64412">
        <ele>69.25</ele>
        <time>2020-05-31T11:52:49Z</time>
      </trkpt>
      <trkpt lat="43.16976" lon="6.6439">
        <ele>69.04</ele>
        <time>2020-05-31T11:53:08Z</time>
      </trkpt>
      <trkpt lat="43.16991" lon="6.64375">
        <ele>68.76</ele>
        <time>2020-05-31T11:53:59Z</time>
      </trkpt>
      <trkpt lat="43.17005" lon="6.64358">
        <ele>68.6</ele>
        <time>2020-05-31T11:54:16Z</time>
      </trkpt>
      <trkpt lat="43.17022" lon="6.64344">
        <ele>68.43</ele>
        <time>2020-05-31T11:54:33Z</time>
      </trkpt>
      <trkpt lat="43.17037" lon="6.64331">
        <ele>68.28</ele>
        <time>2020-05-31T11:54:46Z</time>
      </trkpt>
      <trkpt lat="43.17051" lon="6.64314">
        <ele>68.02</ele>
        <time>2020-05-31T11:55:05Z</time>
      </trkpt>
      <trkpt lat="43.17065" lon="6.64298">
        <ele>67.7</ele>
        <time>2020-05-31T11:55:29Z</time>
      </trkpt>
      <trkpt lat="43.17076" lon="6.64278">
        <ele>67.24</ele>
        <time>2020-05-31T11:56:00Z</time>
      </trkpt>
      <trkpt lat="43.17089" lon="6.6426">
        <ele>66.9</ele>
        <time>2020-05-31T11:56:22Z</time>
      </trkpt>
      <trkpt lat="43.17102" lon="6.64242">
        <ele>66.6</ele>
        <time>2020-05-31T11:56:40Z</time>
      </trkpt>
      <trkpt lat="43.17114" lon="6.64224">
        <ele>66.17</ele>
        <time>2020-05-31T11:57:10Z</time>
      </trkpt>
      <trkpt lat="43.1713" lon="6.64209">
        <ele>65.81</ele>
        <time>2020-05-31T11:57:29Z</time>
      </trkpt>
      <trkpt lat="43.17146" lon="6.64195">
        <ele>65.55</ele>
        <time>2020-05-31T11:57:44Z</time>
      </trkpt>
      <trkpt lat="43.17159" lon="6.64178">
        <ele>65.28</ele>
        <time>2020-05-31T11:58:01Z</time>
      </trkpt>
      <trkpt lat="43.17166" lon="6.64151">
        <ele>64.97</ele>
        <time>2020-05-31T11:58:21Z</time>
      </trkpt>
      <trkpt lat="43.17178" lon="6.64132">
        <ele>64.58</ele>
        <time>2020-05-31T11:58:40Z</time>
      </trkpt>
      <trkpt lat="43.17189" lon="6.64112">
        <ele>64.18</ele>
        <time>2020-05-31T11:58:59Z</time>
      </trkpt>
      <trkpt lat="43.17197" lon="6.64088">
        <ele>63.7</ele>
        <time>2020-05-31T11:59:21Z</time>
      </trkpt>
      <trkpt lat="43.17198" lon="6.64063">
        <ele>63.18</ele>
        <time>2020-05-31T11:59:46Z</time>
      </trkpt>
      <trkpt lat="43.17204" lon="6.64039">
        <ele>62.79</ele>
        <time>2020-05-31T12:00:07Z</time>
      </trkpt>
      <trkpt lat="43.1722" lon="6.64027">
        <ele>62.19</ele>
        <time>2020-05-31T12:00:37Z</time>
      </trkpt>
      <trkpt lat="43.17233" lon="6.64009">
        <ele>61.65</ele>
        <time>2020-05-31T12:01:04Z</time>
      </trkpt>
      <trkpt lat="43.17246" lon="6.6399">
        <ele>61.03</ele>
        <time>2020-05-31T12:01:27Z</time>
      </trkpt>
      <trkpt lat="43.1725" lon="6.63964">
        <ele>60.26</ele>
        <time>2020-05-31T12:01:52Z</time>
      </trkpt>
      <trkpt lat="43.17257" lon="6.6394">
        <ele>59.52</ele>
        <time>2020-05-31T12:02:18Z</time>
      </trkpt>
      <trkpt lat="43.1727" lon="6.63923">
        <ele>58.84</ele>
        <time>2020-05-31T12:02:44Z</time>
      </trkpt>
      <trkpt lat="43.17275" lon="6.63899">
        <ele>58.15</ele>
        <time>2020-05-31T12:03:10Z</time>
      </trkpt>
      <trkpt lat="43.17264" lon="6.63878">
        <ele>57.58</ele>
        <time>2020-05-31T12:03:31Z</time>
      </trkpt>
      <trkpt lat="43.1726" lon="6.63852">
        <ele>56.91</ele>
        <time>2020-05-31T12:04:02Z</time>
      </trkpt>
      <trkpt lat="43.17251" lon="6.63831">
        <ele>56.21</ele>
        <time>2020-05-31T12:04:30Z</time>
      </trkpt>
      <trkpt lat="43.17248" lon="6.63806">
        <ele>55.21</ele>
        <time>2020-05-31T12:05:02Z</time>
      </trkpt>
      <trkpt lat="43.17243" lon="6.63782">
        <ele>53.67</ele>
        <time>2020-05-31T12:05:32Z</time>
      </trkpt>
      <trkpt lat="43.17247" lon="6.63757">
        <ele>52.01</ele>
        <time>2020-05-31T12:06:16Z</time>
      </trkpt>
      <trkpt lat="43.17252" lon="6.63732">
        <ele>50.7</ele>
        <time>2020-05-31T12:06:41Z</time>
      </trkpt>
      <trkpt lat="43.17266" lon="6.63715">
        <ele>49.16</ele>
        <time>2020-05-31T12:07:10Z</time>
      </trkpt>
      <trkpt lat="43.1727" lon="6.6369">
        <ele>47.61</ele>
        <time>2020-05-31T12:07:37Z</time>
      </trkpt>
      <trkpt lat="43.17273" lon="6.63666">
        <ele>46.45</ele>
        <time>2020-05-31T12:08:02Z</time>
      </trkpt>
      <trkpt lat="43.17274" lon="6.6364">
        <ele>45.52</ele>
        <time>2020-05-31T12:08:21Z</time>
      </trkpt>
      <trkpt lat="43.17275" lon="6.63614">
        <ele>44.79</ele>
        <time>2020-05-31T12:08:36Z</time>
      </trkpt>
      <trkpt lat="43.17275" lon="6.63589">
        <ele>44.08</ele>
        <time>2020-05-31T12:08:55Z</time>
      </trkpt>
      <trkpt lat="43.17274" lon="6.63564">
        <ele>43.42</ele>
        <time>2020-05-31T12:09:16Z</time>
      </trkpt>
      <trkpt lat="43.17274" lon="6.63539">
        <ele>42.86</ele>
        <time>2020-05-31T12:09:40Z</time>
      </trkpt>
      <trkpt lat="43.17274" lon="6.63514">
        <ele>42.19</ele>
        <time>2020-05-31T12:10:05Z</time>
      </trkpt>
      <trkpt lat="43.17271" lon="6.63488">
        <ele>40.48</ele>
        <time>2020-05-31T12:11:46Z</time>
      </trkpt>
      <trkpt lat="43.17267" lon="6.63464">
        <ele>39.76</ele>
        <time>2020-05-31T12:12:12Z</time>
      </trkpt>
      <trkpt lat="43.17267" lon="6.63439">
        <ele>39.3</ele>
        <time>2020-05-31T12:12:33Z</time>
      </trkpt>
      <trkpt lat="43.17261" lon="6.63415">
        <ele>38.88</ele>
        <time>2020-05-31T12:13:00Z</time>
      </trkpt>
      <trkpt lat="43.17256" lon="6.6339">
        <ele>38.53</ele>
        <time>2020-05-31T12:13:21Z</time>
      </trkpt>
      <trkpt lat="43.17251" lon="6.63366">
        <ele>38.21</ele>
        <time>2020-05-31T12:13:39Z</time>
      </trkpt>
      <trkpt lat="43.17247" lon="6.6334">
        <ele>37.89</ele>
        <time>2020-05-31T12:13:56Z</time>
      </trkpt>
      <trkpt lat="43.17242" lon="6.63316">
        <ele>37.51</ele>
        <time>2020-05-31T12:14:16Z</time>
      </trkpt>
      <trkpt lat="43.17237" lon="6.63291">
        <ele>37.05</ele>
        <time>2020-05-31T12:14:38Z</time>
      </trkpt>
      <trkpt lat="43.17226" lon="6.63271">
        <ele>36.22</ele>
        <time>2020-05-31T12:16:09Z</time>
      </trkpt>
      <trkpt lat="43.17256" lon="6.63237">
        <ele>-8.82</ele>
        <time>2020-05-31T12:55:12Z</time>
      </trkpt>
      <trkpt lat="43.17226" lon="6.63266">
        <ele>3.13</ele>
        <time>2020-05-31T12:55:14Z</time>
      </trkpt>
      <trkpt lat="43.17217" lon="6.63244">
        <ele>12.41</ele>
        <time>2020-05-31T13:05:09Z</time>
      </trkpt>
      <trkpt lat="43.17202" lon="6.63229">
        <ele>11.77</ele>
        <time>2020-05-31T13:05:59Z</time>
      </trkpt>
      <trkpt lat="43.17187" lon="6.63214">
        <ele>11.64</ele>
        <time>2020-05-31T13:07:09Z</time>
      </trkpt>
      <trkpt lat="43.17169" lon="6.63208">
        <ele>11.66</ele>
        <time>2020-05-31T13:07:42Z</time>
      </trkpt>
      <trkpt lat="43.17151" lon="6.63203">
        <ele>11.87</ele>
        <time>2020-05-31T13:08:11Z</time>
      </trkpt>
      <trkpt lat="43.17133" lon="6.63201">
        <ele>12.25</ele>
        <time>2020-05-31T13:08:47Z</time>
      </trkpt>
      <trkpt lat="43.17115" lon="6.63201">
        <ele>12.45</ele>
        <time>2020-05-31T13:09:11Z</time>
      </trkpt>
      <trkpt lat="43.1711" lon="6.63177">
        <ele>12.52</ele>
        <time>2020-05-31T13:09:32Z</time>
      </trkpt>
      <trkpt lat="43.17124" lon="6.63161">
        <ele>12.53</ele>
        <time>2020-05-31T13:09:50Z</time>
      </trkpt>
      <trkpt lat="43.17131" lon="6.63138">
        <ele>12.5</ele>
        <time>2020-05-31T13:10:12Z</time>
      </trkpt>
      <trkpt lat="43.1713" lon="6.63113">
        <ele>12.5</ele>
        <time>2020-05-31T13:10:34Z</time>
      </trkpt>
      <trkpt lat="43.17127" lon="6.63089">
        <ele>12.54</ele>
        <time>2020-05-31T13:11:01Z</time>
      </trkpt>
      <trkpt lat="43.17118" lon="6.63068">
        <ele>12.75</ele>
        <time>2020-05-31T13:11:25Z</time>
      </trkpt>
      <trkpt lat="43.17107" lon="6.63047">
        <ele>13.07</ele>
        <time>2020-05-31T13:11:48Z</time>
      </trkpt>
      <trkpt lat="43.17093" lon="6.63031">
        <ele>13.58</ele>
        <time>2020-05-31T13:12:21Z</time>
      </trkpt>
      <trkpt lat="43.17078" lon="6.63016">
        <ele>13.82</ele>
        <time>2020-05-31T13:12:41Z</time>
      </trkpt>
      <trkpt lat="43.17068" lon="6.62995">
        <ele>14.05</ele>
        <time>2020-05-31T13:13:07Z</time>
      </trkpt>
      <trkpt lat="43.17051" lon="6.62987">
        <ele>14.2</ele>
        <time>2020-05-31T13:13:33Z</time>
      </trkpt>
      <trkpt lat="43.17032" lon="6.62986">
        <ele>14.39</ele>
        <time>2020-05-31T13:14:03Z</time>
      </trkpt>
      <trkpt lat="43.17014" lon="6.62981">
        <ele>14.52</ele>
        <time>2020-05-31T13:14:28Z</time>
      </trkpt>
      <trkpt lat="43.16997" lon="6.62974">
        <ele>14.62</ele>
        <time>2020-05-31T13:14:50Z</time>
      </trkpt>
      <trkpt lat="43.17" lon="6.6295">
        <ele>14.73</ele>
        <time>2020-05-31T13:15:31Z</time>
      </trkpt>
      <trkpt lat="43.17012" lon="6.62931">
        <ele>15.51</ele>
        <time>2020-05-31T13:17:06Z</time>
      </trkpt>
      <trkpt lat="43.17011" lon="6.62906">
        <ele>17.65</ele>
        <time>2020-05-31T13:18:34Z</time>
      </trkpt>
      <trkpt lat="43.16998" lon="6.62888">
        <ele>18.31</ele>
        <time>2020-05-31T13:18:55Z</time>
      </trkpt>
      <trkpt lat="43.16991" lon="6.62865">
        <ele>19.13</ele>
        <time>2020-05-31T13:19:26Z</time>
      </trkpt>
      <trkpt lat="43.16988" lon="6.62841">
        <ele>19.79</ele>
        <time>2020-05-31T13:19:53Z</time>
      </trkpt>
      <trkpt lat="43.16981" lon="6.62818">
        <ele>20.51</ele>
        <time>2020-05-31T13:20:30Z</time>
      </trkpt>
      <trkpt lat="43.16969" lon="6.62798">
        <ele>20.92</ele>
        <time>2020-05-31T13:20:56Z</time>
      </trkpt>
      <trkpt lat="43.16951" lon="6.62793">
        <ele>21.43</ele>
        <time>2020-05-31T13:21:23Z</time>
      </trkpt>
      <trkpt lat="43.16934" lon="6.62803">
        <ele>22.61</ele>
        <time>2020-05-31T13:22:08Z</time>
      </trkpt>
      <trkpt lat="43.16921" lon="6.62786">
        <ele>23.52</ele>
        <time>2020-05-31T13:23:00Z</time>
      </trkpt>
      <trkpt lat="43.16907" lon="6.62769">
        <ele>23.71</ele>
        <time>2020-05-31T13:23:33Z</time>
      </trkpt>
      <trkpt lat="43.16892" lon="6.62756">
        <ele>23.72</ele>
        <time>2020-05-31T13:24:28Z</time>
      </trkpt>
      <trkpt lat="43.16876" lon="6.62743">
        <ele>23.72</ele>
        <time>2020-05-31T13:24:44Z</time>
      </trkpt>
      <trkpt lat="43.16862" lon="6.62727">
        <ele>23.71</ele>
        <time>2020-05-31T13:25:11Z</time>
      </trkpt>
      <trkpt lat="43.16844" lon="6.6272">
        <ele>23.69</ele>
        <time>2020-05-31T13:25:38Z</time>
      </trkpt>
      <trkpt lat="43.16827" lon="6.62712">
        <ele>23.69</ele>
        <time>2020-05-31T13:26:03Z</time>
      </trkpt>
      <trkpt lat="43.16812" lon="6.62696">
        <ele>23.76</ele>
        <time>2020-05-31T13:26:34Z</time>
      </trkpt>
      <trkpt lat="43.16801" lon="6.62676">
        <ele>23.89</ele>
        <time>2020-05-31T13:27:15Z</time>
      </trkpt>
      <trkpt lat="43.16787" lon="6.62659">
        <ele>23.99</ele>
        <time>2020-05-31T13:27:41Z</time>
      </trkpt>
      <trkpt lat="43.16779" lon="6.62637">
        <ele>24.16</ele>
        <time>2020-05-31T13:28:22Z</time>
      </trkpt>
      <trkpt lat="43.1676" lon="6.62627">
        <ele>24.33</ele>
        <time>2020-05-31T13:28:45Z</time>
      </trkpt>
      <trkpt lat="43.16742" lon="6.62623">
        <ele>24.7</ele>
        <time>2020-05-31T13:29:14Z</time>
      </trkpt>
      <trkpt lat="43.16724" lon="6.62626">
        <ele>25.36</ele>
        <time>2020-05-31T13:29:47Z</time>
      </trkpt>
      <trkpt lat="43.16706" lon="6.62621">
        <ele>25.84</ele>
        <time>2020-05-31T13:30:08Z</time>
      </trkpt>
      <trkpt lat="43.16688" lon="6.62615">
        <ele>26.32</ele>
        <time>2020-05-31T13:30:32Z</time>
      </trkpt>
      <trkpt lat="43.16675" lon="6.62597">
        <ele>26.9</ele>
        <time>2020-05-31T13:31:05Z</time>
      </trkpt>
      <trkpt lat="43.1666" lon="6.62582">
        <ele>27.17</ele>
        <time>2020-05-31T13:31:24Z</time>
      </trkpt>
      <trkpt lat="43.16645" lon="6.62568">
        <ele>27.36</ele>
        <time>2020-05-31T13:31:43Z</time>
      </trkpt>
      <trkpt lat="43.16637" lon="6.62545">
        <ele>27.57</ele>
        <time>2020-05-31T13:32:09Z</time>
      </trkpt>
      <trkpt lat="43.16645" lon="6.62522">
        <ele>27.65</ele>
        <time>2020-05-31T13:32:30Z</time>
      </trkpt>
      <trkpt lat="43.16648" lon="6.62497">
        <ele>27.67</ele>
        <time>2020-05-31T13:32:46Z</time>
      </trkpt>
      <trkpt lat="43.16641" lon="6.62473">
        <ele>27.69</ele>
        <time>2020-05-31T13:33:05Z</time>
      </trkpt>
      <trkpt lat="43.16631" lon="6.62452">
        <ele>27.7</ele>
        <time>2020-05-31T13:33:33Z</time>
      </trkpt>
      <trkpt lat="43.16617" lon="6.62435">
        <ele>27.68</ele>
        <time>2020-05-31T13:33:55Z</time>
      </trkpt>
      <trkpt lat="43.16609" lon="6.62412">
        <ele>27.57</ele>
        <time>2020-05-31T13:34:27Z</time>
      </trkpt>
      <trkpt lat="43.16603" lon="6.62388">
        <ele>27.24</ele>
        <time>2020-05-31T13:34:59Z</time>
      </trkpt>
      <trkpt lat="43.16595" lon="6.62365">
        <ele>26.89</ele>
        <time>2020-05-31T13:35:23Z</time>
      </trkpt>
      <trkpt lat="43.16581" lon="6.62349">
        <ele>26.72</ele>
        <time>2020-05-31T13:35:38Z</time>
      </trkpt>
      <trkpt lat="43.16568" lon="6.62329">
        <ele>26.55</ele>
        <time>2020-05-31T13:35:56Z</time>
      </trkpt>
      <trkpt lat="43.16559" lon="6.62308">
        <ele>26.38</ele>
        <time>2020-05-31T13:36:19Z</time>
      </trkpt>
      <trkpt lat="43.16544" lon="6.62291">
        <ele>26.26</ele>
        <time>2020-05-31T13:36:35Z</time>
      </trkpt>
      <trkpt lat="43.1653" lon="6.62275">
        <ele>26.07</ele>
        <time>2020-05-31T13:37:00Z</time>
      </trkpt>
      <trkpt lat="43.16514" lon="6.62262">
        <ele>25.8</ele>
        <time>2020-05-31T13:37:40Z</time>
      </trkpt>
      <trkpt lat="43.16499" lon="6.62245">
        <ele>25.57</ele>
        <time>2020-05-31T13:37:57Z</time>
      </trkpt>
      <trkpt lat="43.16483" lon="6.62233">
        <ele>25.36</ele>
        <time>2020-05-31T13:38:12Z</time>
      </trkpt>
      <trkpt lat="43.1647" lon="6.62214">
        <ele>25.1</ele>
        <time>2020-05-31T13:38:34Z</time>
      </trkpt>
      <trkpt lat="43.16455" lon="6.62198">
        <ele>24.92</ele>
        <time>2020-05-31T13:38:51Z</time>
      </trkpt>
      <trkpt lat="43.16437" lon="6.62189">
        <ele>24.68</ele>
        <time>2020-05-31T13:39:26Z</time>
      </trkpt>
      <trkpt lat="43.1642" lon="6.62182">
        <ele>24.43</ele>
        <time>2020-05-31T13:39:49Z</time>
      </trkpt>
      <trkpt lat="43.16403" lon="6.62176">
        <ele>24.16</ele>
        <time>2020-05-31T13:40:13Z</time>
      </trkpt>
      <trkpt lat="43.16385" lon="6.62165">
        <ele>23.9</ele>
        <time>2020-05-31T13:40:40Z</time>
      </trkpt>
      <trkpt lat="43.1637" lon="6.6215">
        <ele>23.7</ele>
        <time>2020-05-31T13:41:04Z</time>
      </trkpt>
      <trkpt lat="43.16353" lon="6.6214">
        <ele>23.56</ele>
        <time>2020-05-31T13:41:22Z</time>
      </trkpt>
      <trkpt lat="43.16334" lon="6.6214">
        <ele>23.38</ele>
        <time>2020-05-31T13:41:46Z</time>
      </trkpt>
      <trkpt lat="43.16317" lon="6.6213">
        <ele>23.17</ele>
        <time>2020-05-31T13:42:11Z</time>
      </trkpt>
      <trkpt lat="43.16299" lon="6.62125">
        <ele>22.93</ele>
        <time>2020-05-31T13:42:36Z</time>
      </trkpt>
      <trkpt lat="43.16281" lon="6.6212">
        <ele>22.65</ele>
        <time>2020-05-31T13:43:05Z</time>
      </trkpt>
      <trkpt lat="43.16262" lon="6.62124">
        <ele>22.43</ele>
        <time>2020-05-31T13:43:23Z</time>
      </trkpt>
      <trkpt lat="43.16244" lon="6.62126">
        <ele>22.06</ele>
        <time>2020-05-31T13:44:13Z</time>
      </trkpt>
      <trkpt lat="43.16229" lon="6.6214">
        <ele>21.83</ele>
        <time>2020-05-31T13:44:41Z</time>
      </trkpt>
      <trkpt lat="43.16215" lon="6.62156">
        <ele>21.66</ele>
        <time>2020-05-31T13:45:03Z</time>
      </trkpt>
      <trkpt lat="43.16197" lon="6.62149">
        <ele>21.48</ele>
        <time>2020-05-31T13:45:29Z</time>
      </trkpt>
      <trkpt lat="43.16189" lon="6.62172">
        <ele>21.4</ele>
        <time>2020-05-31T13:46:06Z</time>
      </trkpt>
      <trkpt lat="43.16174" lon="6.62187">
        <ele>21.42</ele>
        <time>2020-05-31T13:46:28Z</time>
      </trkpt>
      <trkpt lat="43.16155" lon="6.62186">
        <ele>21.52</ele>
        <time>2020-05-31T13:46:55Z</time>
      </trkpt>
      <trkpt lat="43.1614" lon="6.622">
        <ele>21.66</ele>
        <time>2020-05-31T13:47:19Z</time>
      </trkpt>
      <trkpt lat="43.16122" lon="6.62198">
        <ele>21.79</ele>
        <time>2020-05-31T13:47:39Z</time>
      </trkpt>
      <trkpt lat="43.16106" lon="6.62186">
        <ele>22.11</ele>
        <time>2020-05-31T13:48:02Z</time>
      </trkpt>
      <trkpt lat="43.16089" lon="6.62175">
        <ele>22.49</ele>
        <time>2020-05-31T13:48:26Z</time>
      </trkpt>
      <trkpt lat="43.16076" lon="6.62159">
        <ele>22.88</ele>
        <time>2020-05-31T13:48:57Z</time>
      </trkpt>
      <trkpt lat="43.16072" lon="6.62135">
        <ele>23.02</ele>
        <time>2020-05-31T13:49:16Z</time>
      </trkpt>
      <trkpt lat="43.16069" lon="6.6211">
        <ele>23.16</ele>
        <time>2020-05-31T13:49:56Z</time>
      </trkpt>
      <trkpt lat="43.16062" lon="6.62086">
        <ele>23.37</ele>
        <time>2020-05-31T13:50:34Z</time>
      </trkpt>
      <trkpt lat="43.1605" lon="6.62069">
        <ele>23.61</ele>
        <time>2020-05-31T13:51:02Z</time>
      </trkpt>
      <trkpt lat="43.16039" lon="6.62048">
        <ele>23.95</ele>
        <time>2020-05-31T13:51:35Z</time>
      </trkpt>
      <trkpt lat="43.16028" lon="6.62028">
        <ele>24.28</ele>
        <time>2020-05-31T13:52:07Z</time>
      </trkpt>
      <trkpt lat="43.16013" lon="6.62014">
        <ele>24.61</ele>
        <time>2020-05-31T13:52:30Z</time>
      </trkpt>
      <trkpt lat="43.15999" lon="6.61999">
        <ele>25.12</ele>
        <time>2020-05-31T13:52:59Z</time>
      </trkpt>
      <trkpt lat="43.16014" lon="6.61986">
        <ele>32.68</ele>
        <time>2020-05-31T13:56:27Z</time>
      </trkpt>
      <trkpt lat="43.16032" lon="6.6199">
        <ele>35.29</ele>
        <time>2020-05-31T13:57:01Z</time>
      </trkpt>
      <trkpt lat="43.16049" lon="6.61979">
        <ele>36.39</ele>
        <time>2020-05-31T13:57:23Z</time>
      </trkpt>
      <trkpt lat="43.16068" lon="6.61975">
        <ele>37.5</ele>
        <time>2020-05-31T13:57:49Z</time>
      </trkpt>
      <trkpt lat="43.16086" lon="6.61973">
        <ele>39.31</ele>
        <time>2020-05-31T13:58:15Z</time>
      </trkpt>
      <trkpt lat="43.16104" lon="6.61977">
        <ele>40.45</ele>
        <time>2020-05-31T13:58:29Z</time>
      </trkpt>
      <trkpt lat="43.16121" lon="6.61968">
        <ele>41.26</ele>
        <time>2020-05-31T13:58:40Z</time>
      </trkpt>
      <trkpt lat="43.16134" lon="6.6195">
        <ele>42.39</ele>
        <time>2020-05-31T13:58:57Z</time>
      </trkpt>
      <trkpt lat="43.16149" lon="6.61937">
        <ele>43.33</ele>
        <time>2020-05-31T13:59:13Z</time>
      </trkpt>
      <trkpt lat="43.16168" lon="6.61936">
        <ele>44.87</ele>
        <time>2020-05-31T13:59:35Z</time>
      </trkpt>
      <trkpt lat="43.16185" lon="6.61946">
        <ele>46.39</ele>
        <time>2020-05-31T13:59:53Z</time>
      </trkpt>
      <trkpt lat="43.16204" lon="6.61941">
        <ele>48.28</ele>
        <time>2020-05-31T14:00:12Z</time>
      </trkpt>
      <trkpt lat="43.16223" lon="6.61942">
        <ele>50.77</ele>
        <time>2020-05-31T14:00:35Z</time>
      </trkpt>
      <trkpt lat="43.16241" lon="6.61935">
        <ele>51.95</ele>
        <time>2020-05-31T14:00:46Z</time>
      </trkpt>
      <trkpt lat="43.16258" lon="6.61925">
        <ele>53</ele>
        <time>2020-05-31T14:00:57Z</time>
      </trkpt>
      <trkpt lat="43.16273" lon="6.61911">
        <ele>54.99</ele>
        <time>2020-05-31T14:01:23Z</time>
      </trkpt>
      <trkpt lat="43.16291" lon="6.61905">
        <ele>56.54</ele>
        <time>2020-05-31T14:01:48Z</time>
      </trkpt>
      <trkpt lat="43.16309" lon="6.61899">
        <ele>59.34</ele>
        <time>2020-05-31T14:02:35Z</time>
      </trkpt>
      <trkpt lat="43.16326" lon="6.6189">
        <ele>61.09</ele>
        <time>2020-05-31T14:02:56Z</time>
      </trkpt>
      <trkpt lat="43.16343" lon="6.61879">
        <ele>61.82</ele>
        <time>2020-05-31T14:03:06Z</time>
      </trkpt>
      <trkpt lat="43.16361" lon="6.61873">
        <ele>63.07</ele>
        <time>2020-05-31T14:03:26Z</time>
      </trkpt>
      <trkpt lat="43.16378" lon="6.61862">
        <ele>64.33</ele>
        <time>2020-05-31T14:03:47Z</time>
      </trkpt>
      <trkpt lat="43.16397" lon="6.61857">
        <ele>66.26</ele>
        <time>2020-05-31T14:04:18Z</time>
      </trkpt>
      <trkpt lat="43.16416" lon="6.61857">
        <ele>66.82</ele>
        <time>2020-05-31T14:04:27Z</time>
      </trkpt>
      <trkpt lat="43.16434" lon="6.61857">
        <ele>67.38</ele>
        <time>2020-05-31T14:04:36Z</time>
      </trkpt>
      <trkpt lat="43.1645" lon="6.61842">
        <ele>68.35</ele>
        <time>2020-05-31T14:04:52Z</time>
      </trkpt>
      <trkpt lat="43.16466" lon="6.6183">
        <ele>69.43</ele>
        <time>2020-05-31T14:05:12Z</time>
      </trkpt>
      <trkpt lat="43.16482" lon="6.6182">
        <ele>70.5</ele>
        <time>2020-05-31T14:05:31Z</time>
      </trkpt>
      <trkpt lat="43.16494" lon="6.61801">
        <ele>71.57</ele>
        <time>2020-05-31T14:05:49Z</time>
      </trkpt>
      <trkpt lat="43.16513" lon="6.61804">
        <ele>72.27</ele>
        <time>2020-05-31T14:06:01Z</time>
      </trkpt>
      <trkpt lat="43.16531" lon="6.61802">
        <ele>72.99</ele>
        <time>2020-05-31T14:06:20Z</time>
      </trkpt>
      <trkpt lat="43.16546" lon="6.61786">
        <ele>74.4</ele>
        <time>2020-05-31T14:06:51Z</time>
      </trkpt>
      <trkpt lat="43.16562" lon="6.61773">
        <ele>75.14</ele>
        <time>2020-05-31T14:07:09Z</time>
      </trkpt>
      <trkpt lat="43.16578" lon="6.61762">
        <ele>75.73</ele>
        <time>2020-05-31T14:07:27Z</time>
      </trkpt>
      <trkpt lat="43.16594" lon="6.6175">
        <ele>76.39</ele>
        <time>2020-05-31T14:07:50Z</time>
      </trkpt>
      <trkpt lat="43.16608" lon="6.61734">
        <ele>76.99</ele>
        <time>2020-05-31T14:08:11Z</time>
      </trkpt>
      <trkpt lat="43.16624" lon="6.61721">
        <ele>78.08</ele>
        <time>2020-05-31T14:08:42Z</time>
      </trkpt>
      <trkpt lat="43.1663" lon="6.61697">
        <ele>78.77</ele>
        <time>2020-05-31T14:09:00Z</time>
      </trkpt>
      <trkpt lat="43.16645" lon="6.61682">
        <ele>79.45</ele>
        <time>2020-05-31T14:09:16Z</time>
      </trkpt>
      <trkpt lat="43.1666" lon="6.61668">
        <ele>80.31</ele>
        <time>2020-05-31T14:09:37Z</time>
      </trkpt>
      <trkpt lat="43.16676" lon="6.61656">
        <ele>81.01</ele>
        <time>2020-05-31T14:09:57Z</time>
      </trkpt>
      <trkpt lat="43.16693" lon="6.61644">
        <ele>81.46</ele>
        <time>2020-05-31T14:10:11Z</time>
      </trkpt>
      <trkpt lat="43.16708" lon="6.61628">
        <ele>82.14</ele>
        <time>2020-05-31T14:10:30Z</time>
      </trkpt>
      <trkpt lat="43.16725" lon="6.61617">
        <ele>82.71</ele>
        <time>2020-05-31T14:10:47Z</time>
      </trkpt>
      <trkpt lat="43.16739" lon="6.61599">
        <ele>83.16</ele>
        <time>2020-05-31T14:11:00Z</time>
      </trkpt>
      <trkpt lat="43.16744" lon="6.61574">
        <ele>83.7</ele>
        <time>2020-05-31T14:11:15Z</time>
      </trkpt>
      <trkpt lat="43.16754" lon="6.61552">
        <ele>84.43</ele>
        <time>2020-05-31T14:11:34Z</time>
      </trkpt>
      <trkpt lat="43.16762" lon="6.61529">
        <ele>85.15</ele>
        <time>2020-05-31T14:11:53Z</time>
      </trkpt>
      <trkpt lat="43.16766" lon="6.61505">
        <ele>85.84</ele>
        <time>2020-05-31T14:12:10Z</time>
      </trkpt>
      <trkpt lat="43.16775" lon="6.61482">
        <ele>86.41</ele>
        <time>2020-05-31T14:12:26Z</time>
      </trkpt>
      <trkpt lat="43.16779" lon="6.61457">
        <ele>86.87</ele>
        <time>2020-05-31T14:12:41Z</time>
      </trkpt>
      <trkpt lat="43.16786" lon="6.61434">
        <ele>87.32</ele>
        <time>2020-05-31T14:12:58Z</time>
      </trkpt>
      <trkpt lat="43.16796" lon="6.61412">
        <ele>87.74</ele>
        <time>2020-05-31T14:13:16Z</time>
      </trkpt>
      <trkpt lat="43.16807" lon="6.61392">
        <ele>88</ele>
        <time>2020-05-31T14:13:31Z</time>
      </trkpt>
      <trkpt lat="43.16823" lon="6.61381">
        <ele>88.21</ele>
        <time>2020-05-31T14:13:45Z</time>
      </trkpt>
      <trkpt lat="43.16839" lon="6.61366">
        <ele>88.46</ele>
        <time>2020-05-31T14:14:07Z</time>
      </trkpt>
      <trkpt lat="43.16853" lon="6.6135">
        <ele>88.58</ele>
        <time>2020-05-31T14:14:21Z</time>
      </trkpt>
      <trkpt lat="43.16869" lon="6.61335">
        <ele>88.74</ele>
        <time>2020-05-31T14:14:40Z</time>
      </trkpt>
      <trkpt lat="43.16882" lon="6.61318">
        <ele>88.85</ele>
        <time>2020-05-31T14:14:53Z</time>
      </trkpt>
      <trkpt lat="43.16897" lon="6.61302">
        <ele>88.99</ele>
        <time>2020-05-31T14:15:09Z</time>
      </trkpt>
      <trkpt lat="43.16909" lon="6.61284">
        <ele>89.19</ele>
        <time>2020-05-31T14:15:27Z</time>
      </trkpt>
      <trkpt lat="43.16917" lon="6.61262">
        <ele>89.39</ele>
        <time>2020-05-31T14:15:45Z</time>
      </trkpt>
      <trkpt lat="43.16926" lon="6.61239">
        <ele>89.58</ele>
        <time>2020-05-31T14:16:03Z</time>
      </trkpt>
      <trkpt lat="43.16932" lon="6.61214">
        <ele>89.81</ele>
        <time>2020-05-31T14:16:22Z</time>
      </trkpt>
      <trkpt lat="43.16945" lon="6.61196">
        <ele>90.1</ele>
        <time>2020-05-31T14:16:38Z</time>
      </trkpt>
      <trkpt lat="43.16957" lon="6.61178">
        <ele>90.61</ele>
        <time>2020-05-31T14:16:57Z</time>
      </trkpt>
      <trkpt lat="43.16973" lon="6.61165">
        <ele>93</ele>
        <time>2020-05-31T14:19:09Z</time>
      </trkpt>
      <trkpt lat="43.16989" lon="6.61179">
        <ele>94.56</ele>
        <time>2020-05-31T14:19:37Z</time>
      </trkpt>
      <trkpt lat="43.17006" lon="6.61187">
        <ele>95.33</ele>
        <time>2020-05-31T14:19:55Z</time>
      </trkpt>
      <trkpt lat="43.17023" lon="6.61179">
        <ele>96.06</ele>
        <time>2020-05-31T14:20:15Z</time>
      </trkpt>
      <trkpt lat="43.17038" lon="6.61164">
        <ele>96.34</ele>
        <time>2020-05-31T14:20:24Z</time>
      </trkpt>
      <trkpt lat="43.17049" lon="6.61145">
        <ele>96.76</ele>
        <time>2020-05-31T14:20:40Z</time>
      </trkpt>
      <trkpt lat="43.17061" lon="6.61124">
        <ele>97.18</ele>
        <time>2020-05-31T14:21:01Z</time>
      </trkpt>
      <trkpt lat="43.1707" lon="6.61101">
        <ele>97.43</ele>
        <time>2020-05-31T14:21:19Z</time>
      </trkpt>
      <trkpt lat="43.17078" lon="6.61079">
        <ele>97.56</ele>
        <time>2020-05-31T14:21:32Z</time>
      </trkpt>
      <trkpt lat="43.1708" lon="6.61054">
        <ele>97.65</ele>
        <time>2020-05-31T14:21:51Z</time>
      </trkpt>
      <trkpt lat="43.17083" lon="6.61029">
        <ele>97.63</ele>
        <time>2020-05-31T14:22:14Z</time>
      </trkpt>
      <trkpt lat="43.171" lon="6.61035">
        <ele>97.54</ele>
        <time>2020-05-31T14:22:44Z</time>
      </trkpt>
      <trkpt lat="43.1711" lon="6.61056">
        <ele>97.45</ele>
        <time>2020-05-31T14:23:00Z</time>
      </trkpt>
      <trkpt lat="43.17116" lon="6.61081">
        <ele>97.33</ele>
        <time>2020-05-31T14:23:19Z</time>
      </trkpt>
      <trkpt lat="43.17115" lon="6.61106">
        <ele>97.21</ele>
        <time>2020-05-31T14:23:38Z</time>
      </trkpt>
      <trkpt lat="43.17113" lon="6.61132">
        <ele>97.09</ele>
        <time>2020-05-31T14:23:53Z</time>
      </trkpt>
      <trkpt lat="43.17119" lon="6.61155">
        <ele>96.95</ele>
        <time>2020-05-31T14:24:11Z</time>
      </trkpt>
      <trkpt lat="43.17135" lon="6.61167">
        <ele>96.84</ele>
        <time>2020-05-31T14:24:26Z</time>
      </trkpt>
      <trkpt lat="43.17153" lon="6.61174">
        <ele>96.73</ele>
        <time>2020-05-31T14:24:42Z</time>
      </trkpt>
      <trkpt lat="43.17172" lon="6.61177">
        <ele>96.58</ele>
        <time>2020-05-31T14:25:00Z</time>
      </trkpt>
      <trkpt lat="43.17191" lon="6.61178">
        <ele>96.42</ele>
        <time>2020-05-31T14:25:19Z</time>
      </trkpt>
      <trkpt lat="43.17193" lon="6.61154">
        <ele>96.24</ele>
        <time>2020-05-31T14:25:41Z</time>
      </trkpt>
      <trkpt lat="43.17179" lon="6.61136">
        <ele>96.13</ele>
        <time>2020-05-31T14:25:54Z</time>
      </trkpt>
      <trkpt lat="43.17165" lon="6.6112">
        <ele>95.93</ele>
        <time>2020-05-31T14:26:13Z</time>
      </trkpt>
      <trkpt lat="43.17165" lon="6.61094">
        <ele>95.79</ele>
        <time>2020-05-31T14:26:26Z</time>
      </trkpt>
      <trkpt lat="43.17174" lon="6.61072">
        <ele>95.61</ele>
        <time>2020-05-31T14:26:43Z</time>
      </trkpt>
      <trkpt lat="43.17189" lon="6.61056">
        <ele>95.37</ele>
        <time>2020-05-31T14:27:05Z</time>
      </trkpt>
      <trkpt lat="43.17197" lon="6.61033">
        <ele>95.09</ele>
        <time>2020-05-31T14:27:23Z</time>
      </trkpt>
      <trkpt lat="43.17198" lon="6.61007">
        <ele>94.74</ele>
        <time>2020-05-31T14:27:41Z</time>
      </trkpt>
      <trkpt lat="43.17193" lon="6.60984">
        <ele>94.34</ele>
        <time>2020-05-31T14:28:06Z</time>
      </trkpt>
      <trkpt lat="43.17211" lon="6.6098">
        <ele>93.87</ele>
        <time>2020-05-31T14:28:29Z</time>
      </trkpt>
      <trkpt lat="43.17227" lon="6.60992">
        <ele>93.32</ele>
        <time>2020-05-31T14:28:45Z</time>
      </trkpt>
      <trkpt lat="43.17236" lon="6.61014">
        <ele>92.39</ele>
        <time>2020-05-31T14:29:02Z</time>
      </trkpt>
      <trkpt lat="43.17244" lon="6.61038">
        <ele>91.12</ele>
        <time>2020-05-31T14:29:17Z</time>
      </trkpt>
      <trkpt lat="43.17249" lon="6.61062">
        <ele>89.12</ele>
        <time>2020-05-31T14:29:36Z</time>
      </trkpt>
      <trkpt lat="43.1726" lon="6.61081">
        <ele>87.44</ele>
        <time>2020-05-31T14:29:49Z</time>
      </trkpt>
      <trkpt lat="43.17275" lon="6.61098">
        <ele>85.27</ele>
        <time>2020-05-31T14:30:05Z</time>
      </trkpt>
      <trkpt lat="43.17293" lon="6.6111">
        <ele>82.52</ele>
        <time>2020-05-31T14:30:25Z</time>
      </trkpt>
      <trkpt lat="43.17307" lon="6.61126">
        <ele>80.63</ele>
        <time>2020-05-31T14:30:39Z</time>
      </trkpt>
      <trkpt lat="43.17325" lon="6.61132">
        <ele>78.34</ele>
        <time>2020-05-31T14:30:56Z</time>
      </trkpt>
      <trkpt lat="43.17342" lon="6.61121">
        <ele>76.1</ele>
        <time>2020-05-31T14:31:09Z</time>
      </trkpt>
      <trkpt lat="43.17359" lon="6.61116">
        <ele>69.19</ele>
        <time>2020-05-31T14:32:25Z</time>
      </trkpt>
      <trkpt lat="43.17363" lon="6.61142">
        <ele>60.53</ele>
        <time>2020-05-31T14:32:59Z</time>
      </trkpt>
      <trkpt lat="43.17367" lon="6.61167">
        <ele>57.44</ele>
        <time>2020-05-31T14:33:13Z</time>
      </trkpt>
      <trkpt lat="43.17375" lon="6.61189">
        <ele>52.42</ele>
        <time>2020-05-31T14:33:40Z</time>
      </trkpt>
      <trkpt lat="43.17393" lon="6.61187">
        <ele>48.94</ele>
        <time>2020-05-31T14:34:06Z</time>
      </trkpt>
      <trkpt lat="43.17412" lon="6.61191">
        <ele>45.32</ele>
        <time>2020-05-31T14:34:47Z</time>
      </trkpt>
      <trkpt lat="43.17422" lon="6.61171">
        <ele>43.38</ele>
        <time>2020-05-31T14:35:21Z</time>
      </trkpt>
      <trkpt lat="43.17439" lon="6.61181">
        <ele>41.09</ele>
        <time>2020-05-31T14:36:43Z</time>
      </trkpt>
      <trkpt lat="43.17457" lon="6.61175">
        <ele>41.11</ele>
        <time>2020-05-31T14:37:13Z</time>
      </trkpt>
      <trkpt lat="43.17473" lon="6.61162">
        <ele>41.54</ele>
        <time>2020-05-31T14:37:43Z</time>
      </trkpt>
      <trkpt lat="43.17481" lon="6.61139">
        <ele>42.06</ele>
        <time>2020-05-31T14:38:09Z</time>
      </trkpt>
      <trkpt lat="43.17499" lon="6.61129">
        <ele>42.65</ele>
        <time>2020-05-31T14:38:38Z</time>
      </trkpt>
      <trkpt lat="43.17506" lon="6.61106">
        <ele>43.42</ele>
        <time>2020-05-31T14:39:04Z</time>
      </trkpt>
      <trkpt lat="43.17523" lon="6.61116">
        <ele>45.2</ele>
        <time>2020-05-31T14:39:51Z</time>
      </trkpt>
      <trkpt lat="43.17543" lon="6.61118">
        <ele>45.68</ele>
        <time>2020-05-31T14:40:04Z</time>
      </trkpt>
      <trkpt lat="43.17546" lon="6.61093">
        <ele>46.7</ele>
        <time>2020-05-31T14:40:30Z</time>
      </trkpt>
      <trkpt lat="43.17542" lon="6.61069">
        <ele>48.36</ele>
        <time>2020-05-31T14:42:33Z</time>
      </trkpt>
      <trkpt lat="43.1755" lon="6.61092">
        <ele>51.17</ele>
        <time>2020-05-31T14:45:11Z</time>
      </trkpt>
      <trkpt lat="43.17568" lon="6.61096">
        <ele>51.7</ele>
        <time>2020-05-31T14:45:31Z</time>
      </trkpt>
      <trkpt lat="43.17585" lon="6.61106">
        <ele>52.02</ele>
        <time>2020-05-31T14:45:44Z</time>
      </trkpt>
      <trkpt lat="43.17602" lon="6.61117">
        <ele>52.63</ele>
        <time>2020-05-31T14:46:11Z</time>
      </trkpt>
      <trkpt lat="43.1762" lon="6.61122">
        <ele>53.18</ele>
        <time>2020-05-31T14:46:35Z</time>
      </trkpt>
      <trkpt lat="43.17638" lon="6.61125">
        <ele>53.81</ele>
        <time>2020-05-31T14:47:01Z</time>
      </trkpt>
      <trkpt lat="43.17653" lon="6.61111">
        <ele>54.42</ele>
        <time>2020-05-31T14:47:21Z</time>
      </trkpt>
      <trkpt lat="43.1767" lon="6.61099">
        <ele>55.21</ele>
        <time>2020-05-31T14:47:38Z</time>
      </trkpt>
      <trkpt lat="43.17681" lon="6.6112">
        <ele>57.54</ele>
        <time>2020-05-31T14:48:10Z</time>
      </trkpt>
      <trkpt lat="43.17675" lon="6.61143">
        <ele>59.72</ele>
        <time>2020-05-31T14:48:32Z</time>
      </trkpt>
      <trkpt lat="43.17671" lon="6.61168">
        <ele>61.57</ele>
        <time>2020-05-31T14:48:49Z</time>
      </trkpt>
      <trkpt lat="43.17656" lon="6.61183">
        <ele>64.47</ele>
        <time>2020-05-31T14:49:19Z</time>
      </trkpt>
      <trkpt lat="43.17654" lon="6.61209">
        <ele>66.55</ele>
        <time>2020-05-31T14:49:45Z</time>
      </trkpt>
      <trkpt lat="43.17659" lon="6.61233">
        <ele>68.37</ele>
        <time>2020-05-31T14:50:09Z</time>
      </trkpt>
      <trkpt lat="43.17666" lon="6.61257">
        <ele>71.49</ele>
        <time>2020-05-31T14:50:44Z</time>
      </trkpt>
      <trkpt lat="43.17669" lon="6.61283">
        <ele>72.9</ele>
        <time>2020-05-31T14:50:57Z</time>
      </trkpt>
      <trkpt lat="43.17678" lon="6.61305">
        <ele>74.96</ele>
        <time>2020-05-31T14:51:14Z</time>
      </trkpt>
      <trkpt lat="43.17697" lon="6.61306">
        <ele>77.2</ele>
        <time>2020-05-31T14:51:30Z</time>
      </trkpt>
      <trkpt lat="43.17714" lon="6.61315">
        <ele>78.88</ele>
        <time>2020-05-31T14:51:43Z</time>
      </trkpt>
      <trkpt lat="43.17731" lon="6.61321">
        <ele>81.34</ele>
        <time>2020-05-31T14:52:04Z</time>
      </trkpt>
      <trkpt lat="43.1775" lon="6.61327">
        <ele>83.38</ele>
        <time>2020-05-31T14:52:22Z</time>
      </trkpt>
      <trkpt lat="43.17769" lon="6.61328">
        <ele>85.87</ele>
        <time>2020-05-31T14:52:45Z</time>
      </trkpt>
      <trkpt lat="43.17785" lon="6.61347">
        <ele>86.85</ele>
        <time>2020-05-31T14:52:54Z</time>
      </trkpt>
      <trkpt lat="43.178" lon="6.61331">
        <ele>89.6</ele>
        <time>2020-05-31T14:53:17Z</time>
      </trkpt>
      <trkpt lat="43.17818" lon="6.61334">
        <ele>91.77</ele>
        <time>2020-05-31T14:53:36Z</time>
      </trkpt>
      <trkpt lat="43.17836" lon="6.6133">
        <ele>93.91</ele>
        <time>2020-05-31T14:53:56Z</time>
      </trkpt>
      <trkpt lat="43.17854" lon="6.61336">
        <ele>97.23</ele>
        <time>2020-05-31T14:54:23Z</time>
      </trkpt>
      <trkpt lat="43.17871" lon="6.61347">
        <ele>100.27</ele>
        <time>2020-05-31T14:54:46Z</time>
      </trkpt>
      <trkpt lat="43.17888" lon="6.61357">
        <ele>102.54</ele>
        <time>2020-05-31T14:55:04Z</time>
      </trkpt>
      <trkpt lat="43.17903" lon="6.61372">
        <ele>107.27</ele>
        <time>2020-05-31T14:55:40Z</time>
      </trkpt>
      <trkpt lat="43.17913" lon="6.61393">
        <ele>110.64</ele>
        <time>2020-05-31T14:56:02Z</time>
      </trkpt>
      <trkpt lat="43.17927" lon="6.61409">
        <ele>114.26</ele>
        <time>2020-05-31T14:56:32Z</time>
      </trkpt>
      <trkpt lat="43.17941" lon="6.61425">
        <ele>117.71</ele>
        <time>2020-05-31T14:56:51Z</time>
      </trkpt>
      <trkpt lat="43.17951" lon="6.61446">
        <ele>123.85</ele>
        <time>2020-05-31T14:57:39Z</time>
      </trkpt>
      <trkpt lat="43.17967" lon="6.61462">
        <ele>127.52</ele>
        <time>2020-05-31T14:57:58Z</time>
      </trkpt>
      <trkpt lat="43.17985" lon="6.61469">
        <ele>129.46</ele>
        <time>2020-05-31T14:58:10Z</time>
      </trkpt>
      <trkpt lat="43.18003" lon="6.61469">
        <ele>132.23</ele>
        <time>2020-05-31T14:58:30Z</time>
      </trkpt>
      <trkpt lat="43.18022" lon="6.61468">
        <ele>134.56</ele>
        <time>2020-05-31T14:58:50Z</time>
      </trkpt>
      <trkpt lat="43.1804" lon="6.61466">
        <ele>136.31</ele>
        <time>2020-05-31T14:59:08Z</time>
      </trkpt>
      <trkpt lat="43.18059" lon="6.61466">
        <ele>137.54</ele>
        <time>2020-05-31T14:59:23Z</time>
      </trkpt>
      <trkpt lat="43.18077" lon="6.61468">
        <ele>138.67</ele>
        <time>2020-05-31T14:59:40Z</time>
      </trkpt>
      <trkpt lat="43.18096" lon="6.6147">
        <ele>139.46</ele>
        <time>2020-05-31T14:59:56Z</time>
      </trkpt>
      <trkpt lat="43.18115" lon="6.61473">
        <ele>139.98</ele>
        <time>2020-05-31T15:00:10Z</time>
      </trkpt>
      <trkpt lat="43.18133" lon="6.61475">
        <ele>140.39</ele>
        <time>2020-05-31T15:00:25Z</time>
      </trkpt>
      <trkpt lat="43.18152" lon="6.61475">
        <ele>140.75</ele>
        <time>2020-05-31T15:00:42Z</time>
      </trkpt>
      <trkpt lat="43.18171" lon="6.61469">
        <ele>140.96</ele>
        <time>2020-05-31T15:00:54Z</time>
      </trkpt>
      <trkpt lat="43.1819" lon="6.61469">
        <ele>141.18</ele>
        <time>2020-05-31T15:01:10Z</time>
      </trkpt>
      <trkpt lat="43.18208" lon="6.6147">
        <ele>141.4</ele>
        <time>2020-05-31T15:01:26Z</time>
      </trkpt>
      <trkpt lat="43.18227" lon="6.61471">
        <ele>141.56</ele>
        <time>2020-05-31T15:01:40Z</time>
      </trkpt>
      <trkpt lat="43.18245" lon="6.61479">
        <ele>141.73</ele>
        <time>2020-05-31T15:01:59Z</time>
      </trkpt>
      <trkpt lat="43.18259" lon="6.61496">
        <ele>141.93</ele>
        <time>2020-05-31T15:02:16Z</time>
      </trkpt>
      <trkpt lat="43.18276" lon="6.61506">
        <ele>142.12</ele>
        <time>2020-05-31T15:02:32Z</time>
      </trkpt>
      <trkpt lat="43.18294" lon="6.61515">
        <ele>142.28</ele>
        <time>2020-05-31T15:02:48Z</time>
      </trkpt>
      <trkpt lat="43.18311" lon="6.61525">
        <ele>142.5</ele>
        <time>2020-05-31T15:03:05Z</time>
      </trkpt>
      <trkpt lat="43.18327" lon="6.61536">
        <ele>143.13</ele>
        <time>2020-05-31T15:03:50Z</time>
      </trkpt>
      <trkpt lat="43.18345" lon="6.6154">
        <ele>143.97</ele>
        <time>2020-05-31T15:04:11Z</time>
      </trkpt>
      <trkpt lat="43.18363" lon="6.61541">
        <ele>144.56</ele>
        <time>2020-05-31T15:04:27Z</time>
      </trkpt>
      <trkpt lat="43.18382" lon="6.6155">
        <ele>144.94</ele>
        <time>2020-05-31T15:04:39Z</time>
      </trkpt>
      <trkpt lat="43.184" lon="6.61555">
        <ele>145.71</ele>
        <time>2020-05-31T15:05:02Z</time>
      </trkpt>
      <trkpt lat="43.18419" lon="6.61554">
        <ele>146.19</ele>
        <time>2020-05-31T15:05:17Z</time>
      </trkpt>
      <trkpt lat="43.18438" lon="6.61553">
        <ele>146.59</ele>
        <time>2020-05-31T15:05:34Z</time>
      </trkpt>
      <trkpt lat="43.18457" lon="6.61554">
        <ele>146.82</ele>
        <time>2020-05-31T15:05:49Z</time>
      </trkpt>
      <trkpt lat="43.18476" lon="6.61556">
        <ele>147.03</ele>
        <time>2020-05-31T15:06:04Z</time>
      </trkpt>
      <trkpt lat="43.18494" lon="6.61555">
        <ele>147.25</ele>
        <time>2020-05-31T15:06:19Z</time>
      </trkpt>
      <trkpt lat="43.18513" lon="6.61555">
        <ele>147.53</ele>
        <time>2020-05-31T15:06:36Z</time>
      </trkpt>
      <trkpt lat="43.18531" lon="6.61551">
        <ele>147.81</ele>
        <time>2020-05-31T15:06:52Z</time>
      </trkpt>
      <trkpt lat="43.18549" lon="6.61551">
        <ele>148.03</ele>
        <time>2020-05-31T15:07:08Z</time>
      </trkpt>
      <trkpt lat="43.18567" lon="6.61543">
        <ele>148.26</ele>
        <time>2020-05-31T15:07:25Z</time>
      </trkpt>
      <trkpt lat="43.18586" lon="6.61542">
        <ele>148.44</ele>
        <time>2020-05-31T15:07:41Z</time>
      </trkpt>
      <trkpt lat="43.18604" lon="6.61546">
        <ele>148.59</ele>
        <time>2020-05-31T15:07:58Z</time>
      </trkpt>
      <trkpt lat="43.18622" lon="6.6155">
        <ele>148.73</ele>
        <time>2020-05-31T15:08:16Z</time>
      </trkpt>
      <trkpt lat="43.18641" lon="6.61548">
        <ele>148.92</ele>
        <time>2020-05-31T15:08:33Z</time>
      </trkpt>
      <trkpt lat="43.18659" lon="6.61546">
        <ele>149.22</ele>
        <time>2020-05-31T15:08:50Z</time>
      </trkpt>
      <trkpt lat="43.18677" lon="6.61541">
        <ele>149.47</ele>
        <time>2020-05-31T15:09:05Z</time>
      </trkpt>
      <trkpt lat="43.18694" lon="6.6153">
        <ele>149.86</ele>
        <time>2020-05-31T15:09:25Z</time>
      </trkpt>
      <trkpt lat="43.18711" lon="6.61521">
        <ele>150.11</ele>
        <time>2020-05-31T15:09:36Z</time>
      </trkpt>
      <trkpt lat="43.18728" lon="6.61512">
        <ele>150.5</ele>
        <time>2020-05-31T15:09:53Z</time>
      </trkpt>
      <trkpt lat="43.18746" lon="6.61505">
        <ele>150.84</ele>
        <time>2020-05-31T15:10:07Z</time>
      </trkpt>
      <trkpt lat="43.18765" lon="6.61511">
        <ele>151.23</ele>
        <time>2020-05-31T15:10:24Z</time>
      </trkpt>
      <trkpt lat="43.18783" lon="6.61506">
        <ele>151.65</ele>
        <time>2020-05-31T15:10:45Z</time>
      </trkpt>
      <trkpt lat="43.18801" lon="6.615">
        <ele>151.93</ele>
        <time>2020-05-31T15:11:01Z</time>
      </trkpt>
      <trkpt lat="43.1882" lon="6.61498">
        <ele>152.11</ele>
        <time>2020-05-31T15:11:14Z</time>
      </trkpt>
      <trkpt lat="43.18838" lon="6.615">
        <ele>152.29</ele>
        <time>2020-05-31T15:11:29Z</time>
      </trkpt>
      <trkpt lat="43.18858" lon="6.61506">
        <ele>152.46</ele>
        <time>2020-05-31T15:11:46Z</time>
      </trkpt>
      <trkpt lat="43.18877" lon="6.61499">
        <ele>152.63</ele>
        <time>2020-05-31T15:12:01Z</time>
      </trkpt>
      <trkpt lat="43.18895" lon="6.61497">
        <ele>152.8</ele>
        <time>2020-05-31T15:12:19Z</time>
      </trkpt>
      <trkpt lat="43.18914" lon="6.61498">
        <ele>153</ele>
        <time>2020-05-31T15:12:38Z</time>
      </trkpt>
      <trkpt lat="43.18933" lon="6.61495">
        <ele>153.21</ele>
        <time>2020-05-31T15:12:53Z</time>
      </trkpt>
      <trkpt lat="43.1895" lon="6.61489">
        <ele>153.47</ele>
        <time>2020-05-31T15:13:11Z</time>
      </trkpt>
      <trkpt lat="43.18967" lon="6.61479">
        <ele>153.75</ele>
        <time>2020-05-31T15:13:34Z</time>
      </trkpt>
      <trkpt lat="43.18985" lon="6.61473">
        <ele>153.96</ele>
        <time>2020-05-31T15:13:51Z</time>
      </trkpt>
      <trkpt lat="43.19001" lon="6.61459">
        <ele>154.17</ele>
        <time>2020-05-31T15:14:11Z</time>
      </trkpt>
      <trkpt lat="43.19017" lon="6.61444">
        <ele>154.35</ele>
        <time>2020-05-31T15:14:29Z</time>
      </trkpt>
      <trkpt lat="43.19035" lon="6.61442">
        <ele>154.47</ele>
        <time>2020-05-31T15:14:43Z</time>
      </trkpt>
      <trkpt lat="43.19051" lon="6.61429">
        <ele>154.62</ele>
        <time>2020-05-31T15:15:01Z</time>
      </trkpt>
      <trkpt lat="43.19057" lon="6.61405">
        <ele>154.75</ele>
        <time>2020-05-31T15:15:17Z</time>
      </trkpt>
      <trkpt lat="43.19069" lon="6.61386">
        <ele>154.91</ele>
        <time>2020-05-31T15:15:37Z</time>
      </trkpt>
      <trkpt lat="43.19077" lon="6.61363">
        <ele>155</ele>
        <time>2020-05-31T15:15:53Z</time>
      </trkpt>
      <trkpt lat="43.19089" lon="6.61344">
        <ele>155.06</ele>
        <time>2020-05-31T15:16:08Z</time>
      </trkpt>
      <trkpt lat="43.191" lon="6.61322">
        <ele>155.1</ele>
        <time>2020-05-31T15:16:22Z</time>
      </trkpt>
      <trkpt lat="43.19116" lon="6.6131">
        <ele>155.16</ele>
        <time>2020-05-31T15:16:40Z</time>
      </trkpt>
      <trkpt lat="43.19135" lon="6.61304">
        <ele>155.25</ele>
        <time>2020-05-31T15:17:04Z</time>
      </trkpt>
      <trkpt lat="43.19153" lon="6.61309">
        <ele>155.41</ele>
        <time>2020-05-31T15:17:17Z</time>
      </trkpt>
      <trkpt lat="43.19172" lon="6.61309">
        <ele>155.73</ele>
        <time>2020-05-31T15:17:37Z</time>
      </trkpt>
      <trkpt lat="43.19185" lon="6.61291">
        <ele>155.92</ele>
        <time>2020-05-31T15:17:53Z</time>
      </trkpt>
      <trkpt lat="43.19199" lon="6.61275">
        <ele>156.08</ele>
        <time>2020-05-31T15:18:11Z</time>
      </trkpt>
      <trkpt lat="43.19211" lon="6.61257">
        <ele>156.18</ele>
        <time>2020-05-31T15:18:28Z</time>
      </trkpt>
      <trkpt lat="43.19225" lon="6.6124">
        <ele>156.24</ele>
        <time>2020-05-31T15:18:43Z</time>
      </trkpt>
      <trkpt lat="43.19241" lon="6.61227">
        <ele>156.28</ele>
        <time>2020-05-31T15:18:59Z</time>
      </trkpt>
      <trkpt lat="43.19254" lon="6.61208">
        <ele>156.32</ele>
        <time>2020-05-31T15:19:16Z</time>
      </trkpt>
      <trkpt lat="43.19267" lon="6.61191">
        <ele>156.35</ele>
        <time>2020-05-31T15:19:30Z</time>
      </trkpt>
      <trkpt lat="43.19278" lon="6.61172">
        <ele>156.34</ele>
        <time>2020-05-31T15:19:45Z</time>
      </trkpt>
      <trkpt lat="43.1929" lon="6.61152">
        <ele>156.31</ele>
        <time>2020-05-31T15:20:02Z</time>
      </trkpt>
      <trkpt lat="43.19301" lon="6.61132">
        <ele>156.28</ele>
        <time>2020-05-31T15:20:18Z</time>
      </trkpt>
      <trkpt lat="43.19315" lon="6.61115">
        <ele>156.24</ele>
        <time>2020-05-31T15:20:33Z</time>
      </trkpt>
      <trkpt lat="43.19328" lon="6.61098">
        <ele>156.19</ele>
        <time>2020-05-31T15:20:50Z</time>
      </trkpt>
      <trkpt lat="43.19344" lon="6.61084">
        <ele>156.14</ele>
        <time>2020-05-31T15:21:12Z</time>
      </trkpt>
      <trkpt lat="43.19351" lon="6.61059">
        <ele>156.13</ele>
        <time>2020-05-31T15:21:26Z</time>
      </trkpt>
      <trkpt lat="43.1936" lon="6.61037">
        <ele>156.5</ele>
        <time>2020-05-31T15:21:46Z</time>
      </trkpt>
      <trkpt lat="43.19371" lon="6.61016">
        <ele>156.82</ele>
        <time>2020-05-31T15:22:02Z</time>
      </trkpt>
      <trkpt lat="43.19386" lon="6.61002">
        <ele>157.34</ele>
        <time>2020-05-31T15:22:23Z</time>
      </trkpt>
      <trkpt lat="43.19404" lon="6.60995">
        <ele>157.87</ele>
        <time>2020-05-31T15:22:41Z</time>
      </trkpt>
      <trkpt lat="43.1942" lon="6.60985">
        <ele>158.46</ele>
        <time>2020-05-31T15:23:01Z</time>
      </trkpt>
      <trkpt lat="43.19435" lon="6.60971">
        <ele>158.88</ele>
        <time>2020-05-31T15:23:19Z</time>
      </trkpt>
      <trkpt lat="43.19451" lon="6.6096">
        <ele>159.13</ele>
        <time>2020-05-31T15:23:38Z</time>
      </trkpt>
      <trkpt lat="43.19469" lon="6.6095">
        <ele>159.2</ele>
        <time>2020-05-31T15:23:56Z</time>
      </trkpt>
      <trkpt lat="43.19485" lon="6.60937">
        <ele>159.16</ele>
        <time>2020-05-31T15:24:16Z</time>
      </trkpt>
      <trkpt lat="43.19504" lon="6.6093">
        <ele>159.06</ele>
        <time>2020-05-31T15:24:32Z</time>
      </trkpt>
      <trkpt lat="43.19523" lon="6.60924">
        <ele>158.88</ele>
        <time>2020-05-31T15:24:49Z</time>
      </trkpt>
    </trkseg>
  </trk>
</gpx>